Observation data for Lake Alan Henry on 05/22/2020      Previous  Date  Next       Current Mesonet Observations  Soil Data  Daily Summary Page  Observations in Plain Language
KAHS 220500Z 18008KT 26/18 A2977 RMK A01 T02580178  RH  061%=      5-min Rain = 0
KAHS 220501Z 18008KT 26/18 A2977 RMK A01 T02580177  RH  061%=      5-min Rain = 0
KAHS 220502Z 18013KT 26/18 A2977 RMK A01 T02590176  RH  060%=      5-min Rain = 0
KAHS 220503Z 18011KT 26/18 A2977 RMK A01 T02610175  RH  059%=      5-min Rain = 0
KAHS 220504Z 18010G15KT 26/17 A2977 RMK A01 T02620174  RH  058%=      5-min Rain = 0
KAHS 220505Z 17012KT 26/17 A2977 RMK A01 T02620172  RH  058%=      5-min Rain = 0
KAHS 220506Z 18011KT 26/17 A2977 RMK A01 T02620172  RH  057%=      5-min Rain = 0
KAHS 220507Z 18010KT 26/17 A2977 RMK A01 T02620171  RH  057%=      5-min Rain = 0
KAHS 220508Z 18014G19KT 26/17 A2977 RMK A01 T02620170  RH  057%=      5-min Rain = 0
KAHS 220509Z 18014KT 26/17 A2977 RMK A01 T02630168  RH  056%=      5-min Rain = 0
KAHS 220510Z 18013KT 26/17 A2977 RMK A01 T02640167  RH  055%=      5-min Rain = 0
KAHS 220511Z 19012KT 26/17 A2977 RMK A01 T02640167  RH  055%=      5-min Rain = 0
KAHS 220512Z 19009KT 26/17 A2977 RMK A01 T02630167  RH  055%=      5-min Rain = 0
KAHS 220513Z 18011KT 26/17 A2977 RMK A01 T02620167  RH  056%=      5-min Rain = 0
KAHS 220514Z 19014G19KT 26/17 A2977 RMK A01 T02620167  RH  056%=      5-min Rain = 0
KAHS 220515Z 17013KT 26/17 A2977 RMK A01 T02620166  RH  055%=      5-min Rain = 0
KAHS 220516Z 18012KT 26/17 A2977 RMK A01 T02620166  RH  055%=      5-min Rain = 0
KAHS 220517Z 18012G17KT 26/17 A2977 RMK A01 T02620165  RH  055%=      5-min Rain = 0
KAHS 220518Z 18009KT 26/17 A2977 RMK A01 T02610165  RH  055%=      5-min Rain = 0
KAHS 220519Z 18012KT 26/16 A2977 RMK A01 T02600164  RH  055%=      5-min Rain = 0
KAHS 220520Z 18011G16KT 26/16 A2977 RMK A01 T02600163  RH  055%=      5-min Rain = 0
KAHS 220521Z 18013KT 26/16 A2977 RMK A01 T02600163  RH  055%=      5-min Rain = 0
KAHS 220522Z 18013KT 26/16 A2977 RMK A01 T02600163  RH  055%=      5-min Rain = 0
KAHS 220523Z 18011KT 26/16 A2977 RMK A01 T02600163  RH  055%=      5-min Rain = 0
KAHS 220524Z 18010KT 26/16 A2977 RMK A01 T02590163  RH  055%=      5-min Rain = 0
KAHS 220525Z 19011KT 26/16 A2977 RMK A01 T02590163  RH  055%=      5-min Rain = 0
KAHS 220526Z 18012KT 26/16 A2977 RMK A01 T02580162  RH  055%=      5-min Rain = 0
KAHS 220527Z 18012KT 26/16 A2977 RMK A01 T02580162  RH  055%=      5-min Rain = 0
KAHS 220528Z 18015KT 26/16 A2977 RMK A01 T02590161  RH  055%=      5-min Rain = 0
KAHS 220529Z 19011KT 26/16 A2977 RMK A01 T02590160  RH  054%=      5-min Rain = 0
KAHS 220530Z 18011KT 26/16 A2977 RMK A01 T02590160  RH  055%=      5-min Rain = 0
KAHS 220531Z 18014KT 26/16 A2977 RMK A01 T02580160  RH  054%=      5-min Rain = 0
KAHS 220532Z 18013KT 26/16 A2977 RMK A01 T02580160  RH  054%=      5-min Rain = 0
KAHS 220533Z 18012KT 26/16 A2977 RMK A01 T02580159  RH  054%=      5-min Rain = 0
KAHS 220534Z 18011KT 26/16 A2977 RMK A01 T02580159  RH  054%=      5-min Rain = 0
KAHS 220535Z 18013KT 26/16 A2977 RMK A01 T02570159  RH  055%=      5-min Rain = 0
KAHS 220536Z 18012KT 26/16 A2977 RMK A01 T02570159  RH  054%=      5-min Rain = 0
KAHS 220537Z 17015KT 26/16 A2977 RMK A01 T02580158  RH  054%=      5-min Rain = 0
KAHS 220538Z 18013G18KT 26/16 A2977 RMK A01 T02570158  RH  054%=      5-min Rain = 0
KAHS 220539Z 18013KT 26/16 A2977 RMK A01 T02570158  RH  054%=      5-min Rain = 0
KAHS 220540Z 18015KT 26/16 A2977 RMK A01 T02560158  RH  054%=      5-min Rain = 0
KAHS 220541Z 18011KT 26/16 A2977 RMK A01 T02570158  RH  054%=      5-min Rain = 0
KAHS 220542Z 18011G17KT 26/16 A2977 RMK A01 T02560158  RH  055%=      5-min Rain = 0
KAHS 220543Z 18011KT 26/16 A2977 RMK A01 T02560158  RH  055%=      5-min Rain = 0
KAHS 220544Z 18013KT 26/16 A2977 RMK A01 T02560158  RH  055%=      5-min Rain = 0
KAHS 220545Z 18013KT 26/16 A2977 RMK A01 T02560158  RH  055%=      5-min Rain = 0
KAHS 220546Z 19013G20KT 26/16 A2977 RMK A01 T02560158  RH  054%=      5-min Rain = 0
KAHS 220547Z 18011KT 26/16 A2977 RMK A01 T02560157  RH  054%=      5-min Rain = 0
KAHS 220548Z 18014KT 26/16 A2977 RMK A01 T02560158  RH  055%=      5-min Rain = 0
KAHS 220549Z 18011KT 26/16 A2977 RMK A01 T02560158  RH  055%=      5-min Rain = 0
KAHS 220550Z 19012G17KT 26/16 A2977 RMK A01 T02560158  RH  055%=      5-min Rain = 0
KAHS 220551Z 18012KT 26/16 A2977 RMK A01 T02560158  RH  055%=      5-min Rain = 0
KAHS 220552Z 18013G19KT 26/16 A2977 RMK A01 T02550158  RH  055%=      5-min Rain = 0
KAHS 220553Z 18013KT 26/16 A2977 RMK A01 T02550158  RH  055%=      5-min Rain = 0
KAHS 220554Z 19012KT 25/16 A2978 RMK A01 T02540158  RH  055%=      5-min Rain = 0
KAHS 220555Z 19014G19KT 25/16 A2978 RMK A01 T02540159  RH  055%=      5-min Rain = 0
KAHS 220556Z 19015G20KT 25/16 A2978 RMK A01 T02540159  RH  055%=      5-min Rain = 0
KAHS 220557Z 18013KT 26/16 A2978 RMK A01 T02550159  RH  055%=      5-min Rain = 0
KAHS 220558Z 18015KT 26/16 A2978 RMK A01 T02550160  RH  056%=      5-min Rain = 0
KAHS 220559Z 18013KT 26/16 A2978 RMK A01 T02550160  RH  056%=      5-min Rain = 0
KAHS 220600Z 19010G15KT 26/16 A2978 RMK A01 T02550160  RH  056%=      5-min Rain = 0
KAHS 220601Z 19013KT 25/16 A2978 RMK A01 T02540160  RH  056%=      5-min Rain = 0
KAHS 220602Z 19012KT 25/16 A2978 RMK A01 T02540160  RH  056%=      5-min Rain = 0
KAHS 220603Z 19011G16KT 25/16 A2978 RMK A01 T02540161  RH  056%=      5-min Rain = 0
KAHS 220604Z 19008KT 25/16 A2978 RMK A01 T02530161  RH  057%=      5-min Rain = 0
KAHS 220605Z 19011KT 25/16 A2978 RMK A01 T02520162  RH  057%=      5-min Rain = 0
KAHS 220606Z 20012KT 25/16 A2978 RMK A01 T02520162  RH  057%=      5-min Rain = 0
KAHS 220607Z 19011KT 25/16 A2978 RMK A01 T02520162  RH  058%=      5-min Rain = 0
KAHS 220608Z 19012KT 25/16 A2978 RMK A01 T02510162  RH  058%=      5-min Rain = 0
KAHS 220609Z 19010KT 25/16 A2978 RMK A01 T02520162  RH  058%=      5-min Rain = 0
KAHS 220610Z 19012KT 25/16 A2978 RMK A01 T02510163  RH  058%=      5-min Rain = 0
KAHS 220611Z 19012KT 25/16 A2978 RMK A01 T02510162  RH  058%=      5-min Rain = 0
KAHS 220612Z 19009KT 25/16 A2978 RMK A01 T02510162  RH  058%=      5-min Rain = 0
KAHS 220613Z 19011KT 25/16 A2978 RMK A01 T02510162  RH  058%=      5-min Rain = 0
KAHS 220614Z 20015KT 25/16 A2978 RMK A01 T02510164  RH  058%=      5-min Rain = 0
KAHS 220615Z 20013KT 25/16 A2978 RMK A01 T02520164  RH  058%=      5-min Rain = 0
KAHS 220616Z 20011KT 25/16 A2978 RMK A01 T02520164  RH  058%=      5-min Rain = 0
KAHS 220617Z 20013G20KT 25/17 A2978 RMK A01 T02520165  RH  059%=      5-min Rain = 0
KAHS 220618Z 20012KT 25/17 A2978 RMK A01 T02530165  RH  058%=      5-min Rain = 0
KAHS 220619Z 20015G21KT 25/17 A2978 RMK A01 T02530165  RH  058%=      5-min Rain = 0
KAHS 220620Z 19013KT 25/17 A2978 RMK A01 T02530165  RH  058%=      5-min Rain = 0
KAHS 220621Z 20013KT 25/17 A2978 RMK A01 T02530165  RH  058%=      5-min Rain = 0
KAHS 220622Z 19014KT 25/17 A2978 RMK A01 T02530165  RH  058%=      5-min Rain = 0
KAHS 220623Z 19012KT 25/17 A2978 RMK A01 T02530165  RH  058%=      5-min Rain = 0
KAHS 220624Z 19014KT 25/17 A2978 RMK A01 T02520165  RH  058%=      5-min Rain = 0
KAHS 220625Z 20013KT 25/17 A2978 RMK A01 T02520165  RH  058%=      5-min Rain = 0
KAHS 220626Z 19012G19KT 25/17 A2978 RMK A01 T02520165  RH  058%=      5-min Rain = 0
KAHS 220627Z 19015KT 25/17 A2978 RMK A01 T02520166  RH  059%=      5-min Rain = 0
KAHS 220628Z 19013KT 25/17 A2978 RMK A01 T02530166  RH  059%=      5-min Rain = 0
KAHS 220629Z 18013KT 25/17 A2978 RMK A01 T02520166  RH  059%=      5-min Rain = 0
KAHS 220630Z 18012KT 25/17 A2978 RMK A01 T02520167  RH  059%=      5-min Rain = 0
KAHS 220631Z 18015KT 25/17 A2978 RMK A01 T02510168  RH  060%=      5-min Rain = 0
KAHS 220632Z 19011G16KT 25/17 A2978 RMK A01 T02510168  RH  060%=      5-min Rain = 0
KAHS 220633Z 19014G21KT 25/17 A2978 RMK A01 T02520168  RH  060%=      5-min Rain = 0
KAHS 220634Z 19018G23KT 25/17 A2978 RMK A01 T02520168  RH  060%=      5-min Rain = 0
KAHS 220635Z 19015KT 25/17 A2978 RMK A01 T02520168  RH  059%=      5-min Rain = 0
KAHS 220636Z 20014KT 25/17 A2978 RMK A01 T02520168  RH  060%=      5-min Rain = 0
KAHS 220637Z 19014KT 25/17 A2978 RMK A01 T02520168  RH  060%=      5-min Rain = 0
KAHS 220638Z 18013G18KT 25/17 A2978 RMK A01 T02520168  RH  060%=      5-min Rain = 0
KAHS 220639Z 19012KT 25/17 A2978 RMK A01 T02510168  RH  060%=      5-min Rain = 0
KAHS 220640Z 19013G18KT 25/17 A2978 RMK A01 T02510168  RH  060%=      5-min Rain = 0
KAHS 220641Z 19014KT 25/17 A2978 RMK A01 T02500169  RH  061%=      5-min Rain = 0
KAHS 220642Z 19013KT 25/17 A2978 RMK A01 T02510169  RH  061%=      5-min Rain = 0
KAHS 220643Z 19013KT 25/17 A2978 RMK A01 T02510169  RH  061%=      5-min Rain = 0
KAHS 220644Z 19013KT 25/17 A2978 RMK A01 T02500169  RH  061%=      5-min Rain = 0
KAHS 220645Z 19013KT 25/17 A2978 RMK A01 T02500169  RH  061%=      5-min Rain = 0
KAHS 220646Z 19012KT 25/17 A2978 RMK A01 T02500169  RH  061%=      5-min Rain = 0
KAHS 220647Z 19012KT 25/17 A2978 RMK A01 T02490170  RH  061%=      5-min Rain = 0
KAHS 220648Z 20014KT 25/17 A2978 RMK A01 T02490171  RH  062%=      5-min Rain = 0
KAHS 220649Z 19012G20KT 25/17 A2978 RMK A01 T02490170  RH  061%=      5-min Rain = 0
KAHS 220650Z 20012G18KT 25/17 A2978 RMK A01 T02490170  RH  062%=      5-min Rain = 0
KAHS 220651Z 19012KT 25/17 A2978 RMK A01 T02490171  RH  062%=      5-min Rain = 0
KAHS 220652Z 19013G19KT 25/17 A2978 RMK A01 T02500172  RH  062%=      5-min Rain = 0
KAHS 220653Z 19013G19KT 25/17 A2978 RMK A01 T02500172  RH  062%=      5-min Rain = 0
KAHS 220654Z 20011KT 25/17 A2978 RMK A01 T02500172  RH  062%=      5-min Rain = 0
KAHS 220655Z 20011KT 25/17 A2978 RMK A01 T02490172  RH  062%=      5-min Rain = 0
KAHS 220656Z 20012KT 25/17 A2978 RMK A01 T02490172  RH  062%=      5-min Rain = 0
KAHS 220657Z 20012KT 25/17 A2978 RMK A01 T02490173  RH  063%=      5-min Rain = 0
KAHS 220658Z 19013KT 25/17 A2978 RMK A01 T02490173  RH  063%=      5-min Rain = 0
KAHS 220659Z 19012G17KT 25/17 A2978 RMK A01 T02490174  RH  063%=      5-min Rain = 0
KAHS 220700Z 19013KT 25/17 A2978 RMK A01 T02500174  RH  063%=      5-min Rain = 0
KAHS 220701Z 19013KT 25/17 A2978 RMK A01 T02500174  RH  063%=      5-min Rain = 0
KAHS 220702Z 19014KT 25/18 A2978 RMK A01 T02500175  RH  063%=      5-min Rain = 0
KAHS 220703Z 19016G21KT 25/18 A2978 RMK A01 T02510175  RH  063%=      5-min Rain = 0
KAHS 220704Z 19015KT 25/18 A2978 RMK A01 T02510175  RH  063%=      5-min Rain = 0
KAHS 220705Z 19012KT 25/18 A2978 RMK A01 T02510175  RH  063%=      5-min Rain = 0
KAHS 220706Z 19012G17KT 25/18 A2978 RMK A01 T02510176  RH  063%=      5-min Rain = 0
KAHS 220707Z 19011KT 25/18 A2978 RMK A01 T02500176  RH  064%=      5-min Rain = 0
KAHS 220708Z 19012G18KT 25/18 A2978 RMK A01 T02490176  RH  064%=      5-min Rain = 0
KAHS 220709Z 19011G16KT 25/18 A2978 RMK A01 T02490176  RH  064%=      5-min Rain = 0
KAHS 220710Z 19012G18KT 25/18 A2978 RMK A01 T02490176  RH  064%=      5-min Rain = 0
KAHS 220711Z 19015KT 25/18 A2978 RMK A01 T02490176  RH  064%=      5-min Rain = 0
KAHS 220712Z 19011KT 25/18 A2978 RMK A01 T02490176  RH  064%=      5-min Rain = 0
KAHS 220713Z 19013KT 25/18 A2978 RMK A01 T02490176  RH  064%=      5-min Rain = 0
KAHS 220714Z 19011KT 25/18 A2978 RMK A01 T02490177  RH  064%=      5-min Rain = 0
KAHS 220715Z 20011KT 25/18 A2978 RMK A01 T02490177  RH  064%=      5-min Rain = 0
KAHS 220716Z 20013KT 25/18 A2978 RMK A01 T02490177  RH  064%=      5-min Rain = 0
KAHS 220717Z 20012KT 25/18 A2978 RMK A01 T02490176  RH  064%=      5-min Rain = 0
KAHS 220718Z 19013G18KT 25/18 A2978 RMK A01 T02490177  RH  064%=      5-min Rain = 0
KAHS 220719Z 20013KT 25/18 A2978 RMK A01 T02490177  RH  064%=      5-min Rain = 0
KAHS 220720Z 19013KT 25/18 A2978 RMK A01 T02500177  RH  064%=      5-min Rain = 0
KAHS 220721Z 19018G23KT 25/18 A2978 RMK A01 T02500177  RH  064%=      5-min Rain = 0
KAHS 220722Z 19014G19KT 25/18 A2978 RMK A01 T02510177  RH  063%=      5-min Rain = 0
KAHS 220723Z 19014G19KT 25/18 A2978 RMK A01 T02510177  RH  063%=      5-min Rain = 0
KAHS 220724Z 20013KT 25/18 A2978 RMK A01 T02510177  RH  063%=      5-min Rain = 0
KAHS 220725Z 20015G21KT 25/18 A2978 RMK A01 T02520177  RH  063%=      5-min Rain = 0
KAHS 220726Z 20013KT 25/18 A2978 RMK A01 T02520177  RH  063%=      5-min Rain = 0
KAHS 220727Z 20013G19KT 25/18 A2978 RMK A01 T02530177  RH  063%=      5-min Rain = 0
KAHS 220728Z 20013G18KT 25/18 A2978 RMK A01 T02530177  RH  063%=      5-min Rain = 0
KAHS 220729Z 20014G19KT 25/18 A2978 RMK A01 T02530177  RH  063%=      5-min Rain = 0
KAHS 220730Z 20012KT 25/18 A2978 RMK A01 T02530177  RH  063%=      5-min Rain = 0
KAHS 220731Z 20011KT 25/18 A2978 RMK A01 T02520177  RH  063%=      5-min Rain = 0
KAHS 220732Z 19011KT 25/18 A2978 RMK A01 T02520177  RH  063%=      5-min Rain = 0
KAHS 220733Z 20012KT 25/18 A2978 RMK A01 T02520177  RH  063%=      5-min Rain = 0
KAHS 220734Z 20010KT 25/18 A2978 RMK A01 T02520177  RH  063%=      5-min Rain = 0
KAHS 220735Z 20011G17KT 25/18 A2978 RMK A01 T02510177  RH  064%=      5-min Rain = 0
KAHS 220736Z 20012KT 25/18 A2978 RMK A01 T02510178  RH  064%=      5-min Rain = 0
KAHS 220737Z 20013KT 25/18 A2978 RMK A01 T02510178  RH  064%=      5-min Rain = 0
KAHS 220738Z 20009KT 25/18 A2978 RMK A01 T02500178  RH  064%=      5-min Rain = 0
KAHS 220739Z 20013G18KT 25/18 A2978 RMK A01 T02500179  RH  065%=      5-min Rain = 0
KAHS 220740Z 20012KT 25/18 A2978 RMK A01 T02490179  RH  065%=      5-min Rain = 0
KAHS 220741Z 20010KT 25/18 A2978 RMK A01 T02490179  RH  065%=      5-min Rain = 0
KAHS 220742Z 20010KT 25/18 A2978 RMK A01 T02480179  RH  065%=      5-min Rain = 0
KAHS 220743Z 19012KT 25/18 A2978 RMK A01 T02480180  RH  066%=      5-min Rain = 0
KAHS 220744Z 20010KT 25/18 A2978 RMK A01 T02470181  RH  067%=      5-min Rain = 0
KAHS 220745Z 19012KT 25/18 A2978 RMK A01 T02460181  RH  067%=      5-min Rain = 0
KAHS 220746Z 19011G16KT 25/18 A2978 RMK A01 T02460181  RH  067%=      5-min Rain = 0
KAHS 220747Z 19011KT 25/18 A2978 RMK A01 T02460182  RH  068%=      5-min Rain = 0
KAHS 220748Z 19012KT 25/18 A2979 RMK A01 T02450182  RH  068%=      5-min Rain = 0
KAHS 220749Z 19013KT 25/18 A2979 RMK A01 T02450182  RH  068%=      5-min Rain = 0
KAHS 220750Z 19014KT 25/18 A2978 RMK A01 T02450182  RH  068%=      5-min Rain = 0
KAHS 220751Z 20012KT 25/18 A2978 RMK A01 T02450182  RH  068%=      5-min Rain = 0
KAHS 220752Z 19010KT 25/18 A2978 RMK A01 T02450182  RH  068%=      5-min Rain = 0
KAHS 220753Z 19012KT 24/18 A2978 RMK A01 T02440182  RH  068%=      5-min Rain = 0
KAHS 220754Z 20010KT 24/18 A2979 RMK A01 T02440182  RH  068%=      5-min Rain = 0
KAHS 220755Z 20012KT 24/18 A2978 RMK A01 T02430182  RH  069%=      5-min Rain = 0
KAHS 220756Z 20013KT 24/18 A2978 RMK A01 T02440182  RH  068%=      5-min Rain = 0
KAHS 220757Z 20013KT 24/18 A2978 RMK A01 T02440182  RH  068%=      5-min Rain = 0
KAHS 220758Z 20012KT 24/18 A2978 RMK A01 T02440182  RH  068%=      5-min Rain = 0
KAHS 220759Z 19010KT 24/18 A2978 RMK A01 T02440182  RH  068%=      5-min Rain = 0
KAHS 220800Z 20013G18KT 24/18 A2978 RMK A01 T02440182  RH  068%=      5-min Rain = 0
KAHS 220801Z 19013KT 24/18 A2978 RMK A01 T02440182  RH  068%=      5-min Rain = 0
KAHS 220802Z 20012KT 25/18 A2978 RMK A01 T02450182  RH  068%=      5-min Rain = 0
KAHS 220803Z 19012G17KT 24/18 A2978 RMK A01 T02440181  RH  068%=      5-min Rain = 0
KAHS 220804Z 20014KT 24/18 A2978 RMK A01 T02440182  RH  068%=      5-min Rain = 0
KAHS 220805Z 19012KT 24/18 A2978 RMK A01 T02440181  RH  068%=      5-min Rain = 0
KAHS 220806Z 20014G19KT 24/18 A2978 RMK A01 T02440181  RH  068%=      5-min Rain = 0
KAHS 220807Z 20012KT 25/18 A2978 RMK A01 T02450181  RH  067%=      5-min Rain = 0
KAHS 220808Z 20012G19KT 25/18 A2978 RMK A01 T02450181  RH  067%=      5-min Rain = 0
KAHS 220809Z 20015KT 25/18 A2978 RMK A01 T02450181  RH  067%=      5-min Rain = 0
KAHS 220810Z 20013KT 25/18 A2978 RMK A01 T02460181  RH  067%=      5-min Rain = 0
KAHS 220811Z 20013KT 25/18 A2978 RMK A01 T02460181  RH  067%=      5-min Rain = 0
KAHS 220812Z 20012KT 25/18 A2978 RMK A01 T02460181  RH  067%=      5-min Rain = 0
KAHS 220813Z 20012KT 25/18 A2978 RMK A01 T02460180  RH  067%=      5-min Rain = 0
KAHS 220814Z 20010KT 25/18 A2978 RMK A01 T02460180  RH  067%=      5-min Rain = 0
KAHS 220815Z 21013KT 25/18 A2978 RMK A01 T02450180  RH  067%=      5-min Rain = 0
KAHS 220816Z 20012KT 25/18 A2978 RMK A01 T02450180  RH  067%=      5-min Rain = 0
KAHS 220817Z 20014G19KT 25/18 A2978 RMK A01 T02460180  RH  067%=      5-min Rain = 0
KAHS 220818Z 20013KT 25/18 A2978 RMK A01 T02460180  RH  067%=      5-min Rain = 0
KAHS 220819Z 21011KT 25/18 A2978 RMK A01 T02460180  RH  067%=      5-min Rain = 0
KAHS 220820Z 20013KT 25/18 A2978 RMK A01 T02460180  RH  067%=      5-min Rain = 0
KAHS 220821Z 20012KT 25/18 A2978 RMK A01 T02470180  RH  066%=      5-min Rain = 0
KAHS 220822Z 21014G19KT 25/18 A2978 RMK A01 T02470180  RH  066%=      5-min Rain = 0
KAHS 220823Z 20014KT 25/18 A2978 RMK A01 T02480179  RH  066%=      5-min Rain = 0
KAHS 220824Z 21010KT 25/18 A2978 RMK A01 T02480179  RH  066%=      5-min Rain = 0
KAHS 220825Z 21011KT 25/18 A2978 RMK A01 T02470179  RH  066%=      5-min Rain = 0
KAHS 220826Z 21012KT 25/18 A2978 RMK A01 T02470179  RH  066%=      5-min Rain = 0
KAHS 220827Z 21010KT 25/18 A2978 RMK A01 T02480178  RH  065%=      5-min Rain = 0
KAHS 220828Z 20012KT 25/18 A2978 RMK A01 T02480178  RH  065%=      5-min Rain = 0
KAHS 220829Z 21012KT 25/18 A2978 RMK A01 T02490178  RH  065%=      5-min Rain = 0
KAHS 220830Z 21011KT 25/18 A2978 RMK A01 T02490178  RH  065%=      5-min Rain = 0
KAHS 220831Z 21011KT 25/18 A2978 RMK A01 T02490178  RH  065%=      5-min Rain = 0
KAHS 220832Z 21012KT 25/18 A2978 RMK A01 T02490178  RH  065%=      5-min Rain = 0
KAHS 220833Z 21009KT 25/18 A2978 RMK A01 T02500178  RH  065%=      5-min Rain = 0
KAHS 220834Z 21010KT 25/18 A2978 RMK A01 T02490178  RH  065%=      5-min Rain = 0
KAHS 220835Z 21009KT 25/18 A2978 RMK A01 T02480178  RH  065%=      5-min Rain = 0
KAHS 220836Z 21009KT 25/18 A2978 RMK A01 T02480178  RH  065%=      5-min Rain = 0
KAHS 220837Z 21011KT 25/18 A2978 RMK A01 T02480177  RH  065%=      5-min Rain = 0
KAHS 220838Z 21010KT 25/18 A2978 RMK A01 T02480177  RH  065%=      5-min Rain = 0
KAHS 220839Z 21011KT 25/18 A2978 RMK A01 T02480177  RH  065%=      5-min Rain = 0
KAHS 220840Z 21013KT 25/18 A2978 RMK A01 T02490177  RH  064%=      5-min Rain = 0
KAHS 220841Z 21013KT 25/18 A2978 RMK A01 T02490177  RH  064%=      5-min Rain = 0
KAHS 220842Z 21012KT 25/18 A2978 RMK A01 T02490177  RH  064%=      5-min Rain = 0
KAHS 220843Z 21012KT 25/18 A2978 RMK A01 T02490176  RH  064%=      5-min Rain = 0
KAHS 220844Z 21012KT 25/18 A2978 RMK A01 T02500177  RH  064%=      5-min Rain = 0
KAHS 220845Z 20011KT 25/18 A2978 RMK A01 T02490176  RH  064%=      5-min Rain = 0
KAHS 220846Z 21010KT 25/18 A2978 RMK A01 T02490177  RH  064%=      5-min Rain = 0
KAHS 220847Z 20010G15KT 25/18 A2978 RMK A01 T02490177  RH  064%=      5-min Rain = 0
KAHS 220848Z 20010G15KT 25/18 A2978 RMK A01 T02480176  RH  064%=      5-min Rain = 0
KAHS 220849Z 21010KT 25/18 A2978 RMK A01 T02480176  RH  064%=      5-min Rain = 0
KAHS 220850Z 21010KT 25/18 A2979 RMK A01 T02470176  RH  065%=      5-min Rain = 0
KAHS 220851Z 21013KT 25/18 A2978 RMK A01 T02480177  RH  065%=      5-min Rain = 0
KAHS 220852Z 21010KT 25/18 A2978 RMK A01 T02480176  RH  065%=      5-min Rain = 0
KAHS 220853Z 21010KT 25/18 A2978 RMK A01 T02470176  RH  065%=      5-min Rain = 0
KAHS 220854Z 21009KT 25/18 A2979 RMK A01 T02470176  RH  065%=      5-min Rain = 0
KAHS 220855Z 20010KT 25/18 A2979 RMK A01 T02460176  RH  065%=      5-min Rain = 0
KAHS 220856Z 20009KT 25/18 A2979 RMK A01 T02460177  RH  065%=      5-min Rain = 0
KAHS 220857Z 20008KT 25/18 A2979 RMK A01 T02450177  RH  066%=      5-min Rain = 0
KAHS 220858Z 21007KT 24/18 A2979 RMK A01 T02440177  RH  066%=      5-min Rain = 0
KAHS 220859Z 20008KT 24/18 A2979 RMK A01 T02430177  RH  066%=      5-min Rain = 0
KAHS 220900Z 21009KT 24/18 A2979 RMK A01 T02430177  RH  066%=      5-min Rain = 0
KAHS 220901Z 20008KT 24/18 A2979 RMK A01 T02430177  RH  066%=      5-min Rain = 0
KAHS 220902Z 20008KT 24/18 A2979 RMK A01 T02430177  RH  066%=      5-min Rain = 0
KAHS 220903Z 20008KT 24/18 A2979 RMK A01 T02430177  RH  067%=      5-min Rain = 0
KAHS 220904Z 20009KT 24/18 A2979 RMK A01 T02420177  RH  067%=      5-min Rain = 0
KAHS 220905Z 20009KT 24/18 A2979 RMK A01 T02420177  RH  067%=      5-min Rain = 0
KAHS 220906Z 20008KT 24/18 A2979 RMK A01 T02420177  RH  067%=      5-min Rain = 0
KAHS 220907Z 20011KT 24/18 A2979 RMK A01 T02420177  RH  067%=      5-min Rain = 0
KAHS 220908Z 20008KT 24/18 A2979 RMK A01 T02420176  RH  067%=      5-min Rain = 0
KAHS 220909Z 20006KT 24/18 A2979 RMK A01 T02420177  RH  067%=      5-min Rain = 0
KAHS 220910Z 19007KT 24/18 A2979 RMK A01 T02410177  RH  067%=      5-min Rain = 0
KAHS 220911Z 20008KT 24/18 A2979 RMK A01 T02400177  RH  068%=      5-min Rain = 0
KAHS 220912Z 20008KT 24/18 A2979 RMK A01 T02410177  RH  067%=      5-min Rain = 0
KAHS 220913Z 19008KT 24/18 A2979 RMK A01 T02410177  RH  067%=      5-min Rain = 0
KAHS 220914Z 18007KT 24/18 A2979 RMK A01 T02410177  RH  068%=      5-min Rain = 0
KAHS 220915Z 19007KT 24/18 A2979 RMK A01 T02400178  RH  068%=      5-min Rain = 0
KAHS 220916Z 18006KT 24/18 A2979 RMK A01 T02390178  RH  069%=      5-min Rain = 0
KAHS 220917Z 18006KT 24/18 A2979 RMK A01 T02380179  RH  069%=      5-min Rain = 0
KAHS 220918Z 18008KT 24/18 A2979 RMK A01 T02370180  RH  070%=      5-min Rain = 0
KAHS 220919Z 19008KT 24/18 A2979 RMK A01 T02370180  RH  070%=      5-min Rain = 0
KAHS 220920Z 19007KT 24/18 A2979 RMK A01 T02370180  RH  071%=      5-min Rain = 0
KAHS 220921Z 20007KT 24/18 A2979 RMK A01 T02360180  RH  071%=      5-min Rain = 0
KAHS 220922Z 19006KT 24/18 A2979 RMK A01 T02350180  RH  071%=      5-min Rain = 0
KAHS 220923Z 19008KT 23/18 A2979 RMK A01 T02340180  RH  072%=      5-min Rain = 0
KAHS 220924Z 20007KT 23/18 A2979 RMK A01 T02340181  RH  072%=      5-min Rain = 0
KAHS 220925Z 20007KT 23/18 A2979 RMK A01 T02330181  RH  072%=      5-min Rain = 0
KAHS 220926Z 20007KT 23/18 A2979 RMK A01 T02330181  RH  072%=      5-min Rain = 0
KAHS 220927Z 20008KT 23/18 A2979 RMK A01 T02330181  RH  072%=      5-min Rain = 0
KAHS 220928Z 20007KT 23/18 A2979 RMK A01 T02330181  RH  072%=      5-min Rain = 0
KAHS 220929Z 19007KT 23/18 A2979 RMK A01 T02330181  RH  072%=      5-min Rain = 0
KAHS 220930Z 20007KT 23/18 A2979 RMK A01 T02330180  RH  072%=      5-min Rain = 0
KAHS 220931Z 21007KT 23/18 A2979 RMK A01 T02330181  RH  073%=      5-min Rain = 0
KAHS 220932Z 20009KT 23/18 A2979 RMK A01 T02330180  RH  072%=      5-min Rain = 0
KAHS 220933Z 20006KT 23/18 A2979 RMK A01 T02330180  RH  072%=      5-min Rain = 0
KAHS 220934Z 21007KT 23/18 A2979 RMK A01 T02320180  RH  073%=      5-min Rain = 0
KAHS 220935Z 21006KT 23/18 A2979 RMK A01 T02310180  RH  073%=      5-min Rain = 0
KAHS 220936Z 21006KT 23/18 A2979 RMK A01 T02300180  RH  073%=      5-min Rain = 0
KAHS 220937Z 22007KT 23/18 A2979 RMK A01 T02300180  RH  073%=      5-min Rain = 0
KAHS 220938Z 21005KT 23/18 A2979 RMK A01 T02300180  RH  073%=      5-min Rain = 0
KAHS 220939Z 21005KT 23/18 A2979 RMK A01 T02290180  RH  074%=      5-min Rain = 0
KAHS 220940Z 21006KT 23/18 A2979 RMK A01 T02280180  RH  074%=      5-min Rain = 0
KAHS 220941Z 21006KT 23/18 A298 RMK A01 T02280180  RH  074%=      5-min Rain = 0
KAHS 220942Z 21006KT 23/18 A298 RMK A01 T02270180  RH  074%=      5-min Rain = 0
KAHS 220943Z 21006KT 23/18 A298 RMK A01 T02270179  RH  075%=      5-min Rain = 0
KAHS 220944Z 20006KT 23/18 A298 RMK A01 T02270179  RH  075%=      5-min Rain = 0
KAHS 220945Z 21006KT 23/18 A298 RMK A01 T02260179  RH  075%=      5-min Rain = 0
KAHS 220946Z 20006KT 23/18 A298 RMK A01 T02270180  RH  075%=      5-min Rain = 0
KAHS 220947Z 20006KT 23/18 A298 RMK A01 T02260179  RH  075%=      5-min Rain = 0
KAHS 220948Z 19005KT 23/18 A298 RMK A01 T02250179  RH  075%=      5-min Rain = 0
KAHS 220949Z 19005KT 22/18 A298 RMK A01 T02240179  RH  076%=      5-min Rain = 0
KAHS 220950Z 19005KT 22/18 A298 RMK A01 T02240179  RH  076%=      5-min Rain = 0
KAHS 220951Z 19005KT 22/18 A298 RMK A01 T02230179  RH  076%=      5-min Rain = 0
KAHS 220952Z 19005KT 22/18 A298 RMK A01 T02230179  RH  076%=      5-min Rain = 0
KAHS 220953Z 19005KT 22/18 A298 RMK A01 T02220179  RH  076%=      5-min Rain = 0
KAHS 220954Z 19004KT 22/18 A298 RMK A01 T02220178  RH  076%=      5-min Rain = 0
KAHS 220955Z 20004KT 22/18 A298 RMK A01 T02210179  RH  077%=      5-min Rain = 0
KAHS 220956Z 19005KT 22/18 A298 RMK A01 T02220180  RH  077%=      5-min Rain = 0
KAHS 220957Z 19006KT 22/18 A298 RMK A01 T02220180  RH  077%=      5-min Rain = 0
KAHS 220958Z 20004KT 22/18 A298 RMK A01 T02220180  RH  077%=      5-min Rain = 0
KAHS 220959Z 20005KT 22/18 A298 RMK A01 T02220180  RH  077%=      5-min Rain = 0
KAHS 221000Z 20006KT 22/18 A298 RMK A01 T02210179  RH  077%=      5-min Rain = 0
KAHS 221001Z 20005KT 22/18 A298 RMK A01 T02210180  RH  077%=      5-min Rain = 0
KAHS 221002Z 21005KT 22/18 A298 RMK A01 T02210179  RH  077%=      5-min Rain = 0
KAHS 221003Z 21006KT 22/18 A298 RMK A01 T02210180  RH  077%=      5-min Rain = 0
KAHS 221004Z 21006KT 22/18 A298 RMK A01 T02210180  RH  078%=      5-min Rain = 0
KAHS 221005Z 21006KT 22/18 A298 RMK A01 T02210179  RH  077%=      5-min Rain = 0
KAHS 221006Z 21005KT 22/18 A298 RMK A01 T02210179  RH  077%=      5-min Rain = 0
KAHS 221007Z 21005KT 22/18 A298 RMK A01 T02200179  RH  077%=      5-min Rain = 0
KAHS 221008Z 22006KT 22/18 A298 RMK A01 T02190179  RH  078%=      5-min Rain = 0
KAHS 221009Z 22005KT 22/18 A298 RMK A01 T02190179  RH  078%=      5-min Rain = 0
KAHS 221010Z 22006KT 22/18 A298 RMK A01 T02180178  RH  078%=      5-min Rain = 0
KAHS 221011Z 21005KT 22/18 A298 RMK A01 T02170178  RH  078%=      5-min Rain = 0
KAHS 221012Z 21006KT 22/18 A298 RMK A01 T02170178  RH  079%=      5-min Rain = 0
KAHS 221013Z 21005KT 22/18 A298 RMK A01 T02160178  RH  079%=      5-min Rain = 0
KAHS 221014Z 20005KT 22/18 A298 RMK A01 T02160178  RH  079%=      5-min Rain = 0
KAHS 221015Z 20005KT 22/18 A298 RMK A01 T02150178  RH  079%=      5-min Rain = 0
KAHS 221016Z 20005KT 21/18 A298 RMK A01 T02140178  RH  080%=      5-min Rain = 0
KAHS 221017Z 19005KT 21/18 A298 RMK A01 T02140178  RH  080%=      5-min Rain = 0
KAHS 221018Z 19006KT 21/18 A298 RMK A01 T02130177  RH  080%=      5-min Rain = 0
KAHS 221019Z 19006KT 21/18 A298 RMK A01 T02130178  RH  081%=      5-min Rain = 0
KAHS 221020Z 19006KT 21/18 A298 RMK A01 T02130178  RH  081%=      5-min Rain = 0
KAHS 221021Z 19006KT 21/18 A298 RMK A01 T02130179  RH  081%=      5-min Rain = 0
KAHS 221022Z 19006KT 21/18 A298 RMK A01 T02130179  RH  081%=      5-min Rain = 0
KAHS 221023Z 20006KT 21/18 A298 RMK A01 T02130179  RH  081%=      5-min Rain = 0
KAHS 221024Z 20006KT 21/18 A298 RMK A01 T02130179  RH  081%=      5-min Rain = 0
KAHS 221025Z 20007KT 21/18 A298 RMK A01 T02140180  RH  081%=      5-min Rain = 0
KAHS 221026Z 20007KT 21/18 A298 RMK A01 T02140179  RH  080%=      5-min Rain = 0
KAHS 221027Z 20007KT 22/18 A298 RMK A01 T02150179  RH  080%=      5-min Rain = 0
KAHS 221028Z 19006KT 22/18 A298 RMK A01 T02150179  RH  080%=      5-min Rain = 0
KAHS 221029Z 19006KT 22/18 A298 RMK A01 T02150179  RH  080%=      5-min Rain = 0
KAHS 221030Z 20008KT 22/18 A298 RMK A01 T02150179  RH  080%=      5-min Rain = 0
KAHS 221031Z 19008KT 22/18 A298 RMK A01 T02150179  RH  080%=      5-min Rain = 0
KAHS 221032Z 19007KT 22/18 A298 RMK A01 T02160179  RH  080%=      5-min Rain = 0
KAHS 221033Z 19008KT 22/18 A298 RMK A01 T02160180  RH  080%=      5-min Rain = 0
KAHS 221034Z 19009KT 22/18 A298 RMK A01 T02170179  RH  079%=      5-min Rain = 0
KAHS 221035Z 20010KT 22/18 A298 RMK A01 T02180180  RH  079%=      5-min Rain = 0
KAHS 221036Z 20008KT 22/18 A298 RMK A01 T02200180  RH  078%=      5-min Rain = 0
KAHS 221037Z 20009KT 22/18 A2981 RMK A01 T02200179  RH  078%=      5-min Rain = 0
KAHS 221038Z 20007KT 22/18 A2981 RMK A01 T02200179  RH  078%=      5-min Rain = 0
KAHS 221039Z 20008KT 22/18 A2981 RMK A01 T02190179  RH  078%=      5-min Rain = 0
KAHS 221040Z 20008KT 22/18 A2981 RMK A01 T02190179  RH  078%=      5-min Rain = 0
KAHS 221041Z 20006KT 22/18 A2981 RMK A01 T02190179  RH  078%=      5-min Rain = 0
KAHS 221042Z 20007KT 22/18 A2981 RMK A01 T02180179  RH  078%=      5-min Rain = 0
KAHS 221043Z 20007KT 22/18 A2981 RMK A01 T02170179  RH  079%=      5-min Rain = 0
KAHS 221044Z 20007KT 22/18 A2981 RMK A01 T02170179  RH  079%=      5-min Rain = 0
KAHS 221045Z 20006KT 22/18 A2981 RMK A01 T02170179  RH  079%=      5-min Rain = 0
KAHS 221046Z 20006KT 22/18 A2981 RMK A01 T02170179  RH  079%=      5-min Rain = 0
KAHS 221047Z 20007KT 22/18 A2981 RMK A01 T02160179  RH  079%=      5-min Rain = 0
KAHS 221048Z 20008KT 22/18 A2981 RMK A01 T02170180  RH  080%=      5-min Rain = 0
KAHS 221049Z 20008KT 22/18 A2981 RMK A01 T02170180  RH  080%=      5-min Rain = 0
KAHS 221050Z 21009KT 22/18 A2981 RMK A01 T02180181  RH  079%=      5-min Rain = 0
KAHS 221051Z 20008KT 22/18 A2981 RMK A01 T02190180  RH  079%=      5-min Rain = 0
KAHS 221052Z 21007KT 22/18 A2981 RMK A01 T02190180  RH  079%=      5-min Rain = 0
KAHS 221053Z 20008KT 22/18 A2981 RMK A01 T02190180  RH  079%=      5-min Rain = 0
KAHS 221054Z 21006KT 22/18 A2981 RMK A01 T02180180  RH  079%=      5-min Rain = 0
KAHS 221055Z 20008KT 22/18 A2981 RMK A01 T02170180  RH  079%=      5-min Rain = 0
KAHS 221056Z 21008KT 22/18 A2981 RMK A01 T02170180  RH  079%=      5-min Rain = 0
KAHS 221057Z 21010KT 22/18 A2981 RMK A01 T02180180  RH  079%=      5-min Rain = 0
KAHS 221058Z 21009KT 22/18 A2981 RMK A01 T02180181  RH  079%=      5-min Rain = 0
KAHS 221059Z 21008KT 22/18 A2981 RMK A01 T02190180  RH  079%=      5-min Rain = 0
KAHS 221100Z 21009KT 22/18 A2981 RMK A01 T02180180  RH  079%=      5-min Rain = 0
KAHS 221101Z 21008KT 22/18 A2981 RMK A01 T02180181  RH  079%=      5-min Rain = 0
KAHS 221102Z 21007KT 22/18 A2981 RMK A01 T02180180  RH  079%=      5-min Rain = 0
KAHS 221103Z 20009KT 22/18 A2981 RMK A01 T02170180  RH  080%=      5-min Rain = 0
KAHS 221104Z 20008KT 22/18 A2981 RMK A01 T02170181  RH  080%=      5-min Rain = 0
KAHS 221105Z 20007KT 22/18 A2981 RMK A01 T02170181  RH  080%=      5-min Rain = 0
KAHS 221106Z 20007KT 22/18 A2981 RMK A01 T02160180  RH  080%=      5-min Rain = 0
KAHS 221107Z 19007KT 22/18 A2981 RMK A01 T02150181  RH  081%=      5-min Rain = 0
KAHS 221108Z 20008KT 22/18 A2981 RMK A01 T02150180  RH  081%=      5-min Rain = 0
KAHS 221109Z 20009KT 22/18 A2981 RMK A01 T02150181  RH  081%=      5-min Rain = 0
KAHS 221110Z 20008KT 22/18 A2981 RMK A01 T02150181  RH  081%=      5-min Rain = 0
KAHS 221111Z 20008KT 22/18 A2981 RMK A01 T02150181  RH  081%=      5-min Rain = 0
KAHS 221112Z 20009KT 22/18 A2981 RMK A01 T02150181  RH  081%=      5-min Rain = 0
KAHS 221113Z 20009KT 22/18 A2981 RMK A01 T02150181  RH  081%=      5-min Rain = 0
KAHS 221114Z 20009KT 22/18 A2981 RMK A01 T02150181  RH  081%=      5-min Rain = 0
KAHS 221115Z 20009KT 22/18 A2981 RMK A01 T02160181  RH  081%=      5-min Rain = 0
KAHS 221116Z 20008KT 22/18 A2981 RMK A01 T02160181  RH  081%=      5-min Rain = 0
KAHS 221117Z 20009KT 22/18 A2981 RMK A01 T02160181  RH  081%=      5-min Rain = 0
KAHS 221118Z 20009KT 22/18 A2981 RMK A01 T02160182  RH  081%=      5-min Rain = 0
KAHS 221119Z 21009KT 22/18 A2982 RMK A01 T02170181  RH  080%=      5-min Rain = 0
KAHS 221120Z 21009KT 22/18 A2982 RMK A01 T02160181  RH  081%=      5-min Rain = 0
KAHS 221121Z 21009KT 22/18 A2982 RMK A01 T02170182  RH  081%=      5-min Rain = 0
KAHS 221122Z 21009KT 22/18 A2982 RMK A01 T02160181  RH  081%=      5-min Rain = 0
KAHS 221123Z 21007KT 22/18 A2982 RMK A01 T02160181  RH  081%=      5-min Rain = 0
KAHS 221124Z 21009KT 22/18 A2982 RMK A01 T02150181  RH  081%=      5-min Rain = 0
KAHS 221125Z 21008KT 22/18 A2982 RMK A01 T02150181  RH  081%=      5-min Rain = 0
KAHS 221126Z 21007KT 22/18 A2982 RMK A01 T02150182  RH  081%=      5-min Rain = 0
KAHS 221127Z 21006KT 21/18 A2982 RMK A01 T02140182  RH  082%=      5-min Rain = 0
KAHS 221128Z 21008KT 21/18 A2982 RMK A01 T02140182  RH  082%=      5-min Rain = 0
KAHS 221129Z 21007KT 21/18 A2982 RMK A01 T02140182  RH  082%=      5-min Rain = 0
KAHS 221130Z 21008KT 21/18 A2982 RMK A01 T02140182  RH  082%=      5-min Rain = 0
KAHS 221131Z 21007KT 21/18 A2982 RMK A01 T02140182  RH  082%=      5-min Rain = 0
KAHS 221132Z 21007KT 21/18 A2982 RMK A01 T02140182  RH  082%=      5-min Rain = 0
KAHS 221133Z 21008KT 21/18 A2982 RMK A01 T02140182  RH  082%=      5-min Rain = 0
KAHS 221134Z 21007KT 21/18 A2982 RMK A01 T02140182  RH  082%=      5-min Rain = 0
KAHS 221135Z 21008KT 21/18 A2982 RMK A01 T02140182  RH  082%=      5-min Rain = 0
KAHS 221136Z 21007KT 22/18 A2982 RMK A01 T02150183  RH  082%=      5-min Rain = 0
KAHS 221137Z 20009KT 22/18 A2982 RMK A01 T02150183  RH  082%=      5-min Rain = 0
KAHS 221138Z 21008KT 22/18 A2982 RMK A01 T02160183  RH  082%=      5-min Rain = 0
KAHS 221139Z 21011KT 22/18 A2982 RMK A01 T02160183  RH  082%=      5-min Rain = 0
KAHS 221140Z 21010KT 22/18 A2982 RMK A01 T02170183  RH  081%=      5-min Rain = 0
KAHS 221141Z 21009KT 22/18 A2982 RMK A01 T02180183  RH  081%=      5-min Rain = 0
KAHS 221142Z 21008KT 22/18 A2982 RMK A01 T02180183  RH  081%=      5-min Rain = 0
KAHS 221143Z 21009KT 22/18 A2982 RMK A01 T02170183  RH  081%=      5-min Rain = 0
KAHS 221144Z 21009KT 22/18 A2982 RMK A01 T02170183  RH  081%=      5-min Rain = 0
KAHS 221145Z 21008KT 22/18 A2982 RMK A01 T02170183  RH  081%=      5-min Rain = 0
KAHS 221146Z 21008KT 22/18 A2982 RMK A01 T02170184  RH  081%=      5-min Rain = 0
KAHS 221147Z 21008KT 22/18 A2982 RMK A01 T02170183  RH  081%=      5-min Rain = 0
KAHS 221148Z 21009KT 22/18 A2982 RMK A01 T02170183  RH  081%=      5-min Rain = 0
KAHS 221149Z 21008KT 22/18 A2982 RMK A01 T02170183  RH  081%=      5-min Rain = 0
KAHS 221150Z 21008KT 22/18 A2982 RMK A01 T02170184  RH  082%=      5-min Rain = 0
KAHS 221151Z 21008KT 22/18 A2982 RMK A01 T02160184  RH  082%=      5-min Rain = 0
KAHS 221152Z 21007KT 22/18 A2982 RMK A01 T02160184  RH  082%=      5-min Rain = 0
KAHS 221153Z 21007KT 22/18 A2983 RMK A01 T02160184  RH  082%=      5-min Rain = 0
KAHS 221154Z 21008KT 22/18 A2983 RMK A01 T02160184  RH  082%=      5-min Rain = 0
KAHS 221155Z 21008KT 22/18 A2983 RMK A01 T02150184  RH  082%=      5-min Rain = 0
KAHS 221156Z 20007KT 22/18 A2983 RMK A01 T02160184  RH  082%=      5-min Rain = 0
KAHS 221157Z 20009KT 22/18 A2983 RMK A01 T02160184  RH  082%=      5-min Rain = 0
KAHS 221158Z 20008KT 22/18 A2983 RMK A01 T02160184  RH  082%=      5-min Rain = 0
KAHS 221159Z 20008KT 22/18 A2983 RMK A01 T02160184  RH  082%=      5-min Rain = 0
KAHS 221200Z 20008KT 22/18 A2983 RMK A01 T02160184  RH  082%=      5-min Rain = 0
KAHS 221201Z 20008KT 22/19 A2983 RMK A01 T02160185  RH  082%=      5-min Rain = 0
KAHS 221202Z 19008KT 22/19 A2983 RMK A01 T02170185  RH  082%=      5-min Rain = 0
KAHS 221203Z 20008KT 22/19 A2983 RMK A01 T02170185  RH  082%=      5-min Rain = 0
KAHS 221204Z 19008KT 22/19 A2983 RMK A01 T02170185  RH  082%=      5-min Rain = 0
KAHS 221205Z 19007KT 22/19 A2983 RMK A01 T02170185  RH  082%=      5-min Rain = 0
KAHS 221206Z 19008KT 22/19 A2983 RMK A01 T02170185  RH  082%=      5-min Rain = 0
KAHS 221207Z 19007KT 22/19 A2983 RMK A01 T02170185  RH  082%=      5-min Rain = 0
KAHS 221208Z 19007KT 22/19 A2983 RMK A01 T02170185  RH  082%=      5-min Rain = 0
KAHS 221209Z 19007KT 22/19 A2983 RMK A01 T02170185  RH  082%=      5-min Rain = 0
KAHS 221210Z 20007KT 22/19 A2983 RMK A01 T02170185  RH  082%=      5-min Rain = 0
KAHS 221211Z 20006KT 22/19 A2983 RMK A01 T02170185  RH  082%=      5-min Rain = 0
KAHS 221212Z 20006KT 22/19 A2983 RMK A01 T02170185  RH  082%=      5-min Rain = 0
KAHS 221213Z 20006KT 22/19 A2983 RMK A01 T02180185  RH  082%=      5-min Rain = 0
KAHS 221214Z 20007KT 22/19 A2983 RMK A01 T02180185  RH  082%=      5-min Rain = 0
KAHS 221215Z 20006KT 22/19 A2983 RMK A01 T02180185  RH  082%=      5-min Rain = 0
KAHS 221216Z 20006KT 22/19 A2983 RMK A01 T02180185  RH  082%=      5-min Rain = 0
KAHS 221217Z 20007KT 22/19 A2983 RMK A01 T02180185  RH  082%=      5-min Rain = 0
KAHS 221218Z 20008KT 22/19 A2983 RMK A01 T02190186  RH  082%=      5-min Rain = 0
KAHS 221219Z 20008KT 22/19 A2983 RMK A01 T02190186  RH  082%=      5-min Rain = 0
KAHS 221220Z 21008KT 22/19 A2984 RMK A01 T02190186  RH  081%=      5-min Rain = 0
KAHS 221221Z 21009KT 22/19 A2984 RMK A01 T02200186  RH  081%=      5-min Rain = 0
KAHS 221222Z 21007KT 22/19 A2984 RMK A01 T02200186  RH  081%=      5-min Rain = 0
KAHS 221223Z 21010KT 22/19 A2984 RMK A01 T02210186  RH  081%=      5-min Rain = 0
KAHS 221224Z 21007KT 22/19 A2984 RMK A01 T02210187  RH  081%=      5-min Rain = 0
KAHS 221225Z 21008KT 22/19 A2984 RMK A01 T02220187  RH  081%=      5-min Rain = 0
KAHS 221226Z 21008KT 22/19 A2984 RMK A01 T02220187  RH  081%=      5-min Rain = 0
KAHS 221227Z 21008KT 22/19 A2984 RMK A01 T02220187  RH  080%=      5-min Rain = 0
KAHS 221228Z 21009KT 22/19 A2984 RMK A01 T02230187  RH  080%=      5-min Rain = 0
KAHS 221229Z 21008KT 22/19 A2984 RMK A01 T02230187  RH  080%=      5-min Rain = 0
KAHS 221230Z 21009KT 22/19 A2984 RMK A01 T02230188  RH  080%=      5-min Rain = 0
KAHS 221231Z 21010KT 22/19 A2984 RMK A01 T02240188  RH  080%=      5-min Rain = 0
KAHS 221232Z 21007KT 22/19 A2984 RMK A01 T02240188  RH  080%=      5-min Rain = 0
KAHS 221233Z 21008KT 22/19 A2984 RMK A01 T02240188  RH  080%=      5-min Rain = 0
KAHS 221234Z 21007KT 23/19 A2984 RMK A01 T02250188  RH  080%=      5-min Rain = 0
KAHS 221235Z 21008KT 23/19 A2984 RMK A01 T02250188  RH  080%=      5-min Rain = 0
KAHS 221236Z 21007KT 23/19 A2984 RMK A01 T02250188  RH  080%=      5-min Rain = 0
KAHS 221237Z 21007KT 23/19 A2984 RMK A01 T02250188  RH  080%=      5-min Rain = 0
KAHS 221238Z 21009KT 23/19 A2984 RMK A01 T02250189  RH  080%=      5-min Rain = 0
KAHS 221239Z 21008KT 23/19 A2984 RMK A01 T02250189  RH  080%=      5-min Rain = 0
KAHS 221240Z 21007KT 23/19 A2984 RMK A01 T02260189  RH  080%=      5-min Rain = 0
KAHS 221241Z 21009KT 23/19 A2984 RMK A01 T02260189  RH  080%=      5-min Rain = 0
KAHS 221242Z 22007KT 23/19 A2984 RMK A01 T02260189  RH  079%=      5-min Rain = 0
KAHS 221243Z 21008KT 23/19 A2984 RMK A01 T02260189  RH  079%=      5-min Rain = 0
KAHS 221244Z 22007KT 23/19 A2984 RMK A01 T02270189  RH  079%=      5-min Rain = 0
KAHS 221245Z 21008KT 23/19 A2984 RMK A01 T02270189  RH  079%=      5-min Rain = 0
KAHS 221246Z 21008KT 23/19 A2984 RMK A01 T02270189  RH  079%=      5-min Rain = 0
KAHS 221247Z 21007KT 23/19 A2984 RMK A01 T02280190  RH  079%=      5-min Rain = 0
KAHS 221248Z 21007KT 23/19 A2984 RMK A01 T02280190  RH  079%=      5-min Rain = 0
KAHS 221249Z 21007KT 23/19 A2984 RMK A01 T02280190  RH  079%=      5-min Rain = 0
KAHS 221250Z 21008KT 23/19 A2984 RMK A01 T02280190  RH  079%=      5-min Rain = 0
KAHS 221251Z 21007KT 23/19 A2984 RMK A01 T02290190  RH  079%=      5-min Rain = 0
KAHS 221252Z 22006KT 23/19 A2984 RMK A01 T02290190  RH  079%=      5-min Rain = 0
KAHS 221253Z 22006KT 23/19 A2984 RMK A01 T02300191  RH  079%=      5-min Rain = 0
KAHS 221254Z 22006KT 23/19 A2984 RMK A01 T02300191  RH  079%=      5-min Rain = 0
KAHS 221255Z 21006KT 23/19 A2984 RMK A01 T02310191  RH  078%=      5-min Rain = 0
KAHS 221256Z 22006KT 23/19 A2984 RMK A01 T02310192  RH  078%=      5-min Rain = 0
KAHS 221257Z 21007KT 23/19 A2985 RMK A01 T02320192  RH  078%=      5-min Rain = 0
KAHS 221258Z 21008KT 23/19 A2984 RMK A01 T02320191  RH  078%=      5-min Rain = 0
KAHS 221259Z 20007KT 23/19 A2985 RMK A01 T02320192  RH  078%=      5-min Rain = 0
KAHS 221300Z 21007KT 23/19 A2985 RMK A01 T02330193  RH  078%=      5-min Rain = 0
KAHS 221301Z 21007KT 23/19 A2985 RMK A01 T02340193  RH  078%=      5-min Rain = 0
KAHS 221302Z 21008KT 23/19 A2985 RMK A01 T02340192  RH  077%=      5-min Rain = 0
KAHS 221303Z 21007KT 23/19 A2985 RMK A01 T02340192  RH  077%=      5-min Rain = 0
KAHS 221304Z 21008KT 24/19 A2985 RMK A01 T02350193  RH  077%=      5-min Rain = 0
KAHS 221305Z 20008KT 24/19 A2985 RMK A01 T02350193  RH  077%=      5-min Rain = 0
KAHS 221306Z 21006KT 24/19 A2985 RMK A01 T02350193  RH  077%=      5-min Rain = 0
KAHS 221307Z 20008KT 24/19 A2985 RMK A01 T02360194  RH  077%=      5-min Rain = 0
KAHS 221308Z 20009KT 24/19 A2985 RMK A01 T02360193  RH  077%=      5-min Rain = 0
KAHS 221309Z 21009KT 24/19 A2985 RMK A01 T02370194  RH  077%=      5-min Rain = 0
KAHS 221310Z 20009KT 24/19 A2985 RMK A01 T02370193  RH  076%=      5-min Rain = 0
KAHS 221311Z 20009KT 24/19 A2985 RMK A01 T02370193  RH  076%=      5-min Rain = 0
KAHS 221312Z 20009KT 24/19 A2985 RMK A01 T02380193  RH  076%=      5-min Rain = 0
KAHS 221313Z 20009KT 24/19 A2985 RMK A01 T02380194  RH  076%=      5-min Rain = 0
KAHS 221314Z 20011KT 24/19 A2985 RMK A01 T02380193  RH  076%=      5-min Rain = 0
KAHS 221315Z 21009KT 24/19 A2985 RMK A01 T02380193  RH  076%=      5-min Rain = 0
KAHS 221316Z 21007KT 24/19 A2985 RMK A01 T02390194  RH  076%=      5-min Rain = 0
KAHS 221317Z 21010KT 24/19 A2985 RMK A01 T02400194  RH  076%=      5-min Rain = 0
KAHS 221318Z 20008KT 24/19 A2985 RMK A01 T02400194  RH  076%=      5-min Rain = 0
KAHS 221319Z 21011KT 24/20 A2985 RMK A01 T02410195  RH  075%=      5-min Rain = 0
KAHS 221320Z 22008KT 24/19 A2985 RMK A01 T02410194  RH  075%=      5-min Rain = 0
KAHS 221321Z 20010KT 24/20 A2985 RMK A01 T02420196  RH  076%=      5-min Rain = 0
KAHS 221322Z 21010KT 24/19 A2985 RMK A01 T02410194  RH  075%=      5-min Rain = 0
KAHS 221323Z 20007KT 24/20 A2985 RMK A01 T02420196  RH  075%=      5-min Rain = 0
KAHS 221324Z 21010KT 24/20 A2985 RMK A01 T02430195  RH  075%=      5-min Rain = 0
KAHS 221325Z 20008KT 24/20 A2985 RMK A01 T02430196  RH  075%=      5-min Rain = 0
KAHS 221326Z 21008KT 24/20 A2985 RMK A01 T02440197  RH  075%=      5-min Rain = 0
KAHS 221327Z 20008KT 24/20 A2985 RMK A01 T02440196  RH  074%=      5-min Rain = 0
KAHS 221328Z 21011KT 24/20 A2985 RMK A01 T02440196  RH  074%=      5-min Rain = 0
KAHS 221329Z 20009KT 24/20 A2985 RMK A01 T02440196  RH  074%=      5-min Rain = 0
KAHS 221330Z 21011KT 25/20 A2985 RMK A01 T02450196  RH  074%=      5-min Rain = 0
KAHS 221331Z 21011KT 25/20 A2985 RMK A01 T02450196  RH  074%=      5-min Rain = 0
KAHS 221332Z 20010KT 25/20 A2985 RMK A01 T02460197  RH  074%=      5-min Rain = 0
KAHS 221333Z 21010KT 25/20 A2985 RMK A01 T02460197  RH  074%=      5-min Rain = 0
KAHS 221334Z 21012KT 25/20 A2985 RMK A01 T02460197  RH  074%=      5-min Rain = 0
KAHS 221335Z 21007KT 25/20 A2985 RMK A01 T02470197  RH  074%=      5-min Rain = 0
KAHS 221336Z 21010KT 25/20 A2985 RMK A01 T02480198  RH  074%=      5-min Rain = 0
KAHS 221337Z 20010KT 25/20 A2985 RMK A01 T02480197  RH  073%=      5-min Rain = 0
KAHS 221338Z 20008KT 25/20 A2985 RMK A01 T02480198  RH  074%=      5-min Rain = 0
KAHS 221339Z 20011KT 25/20 A2985 RMK A01 T02490198  RH  073%=      5-min Rain = 0
KAHS 221340Z 20011KT 25/20 A2985 RMK A01 T02480197  RH  073%=      5-min Rain = 0
KAHS 221341Z 20012KT 25/20 A2985 RMK A01 T02480197  RH  073%=      5-min Rain = 0
KAHS 221342Z 21012KT 25/20 A2985 RMK A01 T02480197  RH  073%=      5-min Rain = 0
KAHS 221343Z 21010KT 25/20 A2985 RMK A01 T02490198  RH  073%=      5-min Rain = 0
KAHS 221344Z 21011KT 25/20 A2985 RMK A01 T02490199  RH  073%=      5-min Rain = 0
KAHS 221345Z 20009KT 25/20 A2985 RMK A01 T02500199  RH  073%=      5-min Rain = 0
KAHS 221346Z 21008KT 25/20 A2986 RMK A01 T02510200  RH  073%=      5-min Rain = 0
KAHS 221347Z 20009KT 25/20 A2986 RMK A01 T02520200  RH  073%=      5-min Rain = 0
KAHS 221348Z 20011KT 25/20 A2986 RMK A01 T02520200  RH  073%=      5-min Rain = 0
KAHS 221349Z 21010KT 25/20 A2986 RMK A01 T02520200  RH  073%=      5-min Rain = 0
KAHS 221350Z 21011KT 25/20 A2986 RMK A01 T02520199  RH  072%=      5-min Rain = 0
KAHS 221351Z 20012KT 25/20 A2986 RMK A01 T02520200  RH  073%=      5-min Rain = 0
KAHS 221352Z 20012KT 25/20 A2986 RMK A01 T02530200  RH  072%=      5-min Rain = 0
KAHS 221353Z 21010KT 25/20 A2986 RMK A01 T02530200  RH  072%=      5-min Rain = 0
KAHS 221354Z 22013KT 25/20 A2986 RMK A01 T02540200  RH  072%=      5-min Rain = 0
KAHS 221355Z 22014KT 25/20 A2986 RMK A01 T02540200  RH  072%=      5-min Rain = 0
KAHS 221356Z 21011KT 25/20 A2986 RMK A01 T02540200  RH  072%=      5-min Rain = 0
KAHS 221357Z 21011KT 26/20 A2986 RMK A01 T02550201  RH  072%=      5-min Rain = 0
KAHS 221358Z 21011KT 26/20 A2986 RMK A01 T02560200  RH  071%=      5-min Rain = 0
KAHS 221359Z 21013KT 26/20 A2986 RMK A01 T02550199  RH  071%=      5-min Rain = 0
KAHS 221400Z 22011KT 26/20 A2986 RMK A01 T02550199  RH  071%=      5-min Rain = 0
KAHS 221401Z 22011G16KT 26/20 A2986 RMK A01 T02560201  RH  072%=      5-min Rain = 0
KAHS 221402Z 21011G16KT 26/20 A2986 RMK A01 T02560200  RH  071%=      5-min Rain = 0
KAHS 221403Z 22013KT 26/20 A2986 RMK A01 T02570201  RH  071%=      5-min Rain = 0
KAHS 221404Z 21013KT 26/20 A2986 RMK A01 T02560199  RH  071%=      5-min Rain = 0
KAHS 221405Z 21013KT 26/20 A2986 RMK A01 T02550199  RH  071%=      5-min Rain = 0
KAHS 221406Z 20012KT 26/20 A2986 RMK A01 T02550199  RH  071%=      5-min Rain = 0
KAHS 221407Z 21015KT 26/20 A2986 RMK A01 T02550199  RH  071%=      5-min Rain = 0
KAHS 221408Z 22013KT 26/20 A2986 RMK A01 T02550199  RH  071%=      5-min Rain = 0
KAHS 221409Z 22011KT 26/20 A2986 RMK A01 T02550199  RH  071%=      5-min Rain = 0
KAHS 221410Z 22010KT 26/20 A2986 RMK A01 T02570201  RH  071%=      5-min Rain = 0
KAHS 221411Z 21012KT 26/20 A2986 RMK A01 T02590201  RH  071%=      5-min Rain = 0
KAHS 221412Z 22013KT 26/20 A2986 RMK A01 T02580200  RH  070%=      5-min Rain = 0
KAHS 221413Z 22012KT 26/20 A2986 RMK A01 T02570199  RH  070%=      5-min Rain = 0
KAHS 221414Z 22012KT 26/20 A2986 RMK A01 T02570200  RH  071%=      5-min Rain = 0
KAHS 221415Z 22012G17KT 26/20 A2986 RMK A01 T02580200  RH  070%=      5-min Rain = 0
KAHS 221416Z 22015KT 26/20 A2986 RMK A01 T02580199  RH  070%=      5-min Rain = 0
KAHS 221417Z 21012KT 26/20 A2986 RMK A01 T02580200  RH  070%=      5-min Rain = 0
KAHS 221418Z 20012G17KT 26/20 A2986 RMK A01 T02590200  RH  070%=      5-min Rain = 0
KAHS 221419Z 21013KT 26/20 A2986 RMK A01 T02580200  RH  070%=      5-min Rain = 0
KAHS 221420Z 22014KT 26/20 A2986 RMK A01 T02580199  RH  070%=      5-min Rain = 0
KAHS 221421Z 22012G17KT 26/20 A2986 RMK A01 T02580199  RH  070%=      5-min Rain = 0
KAHS 221422Z 22012KT 26/20 A2986 RMK A01 T02580200  RH  070%=      5-min Rain = 0
KAHS 221423Z 22012KT 26/20 A2986 RMK A01 T02590201  RH  070%=      5-min Rain = 0
KAHS 221424Z 21011KT 26/20 A2986 RMK A01 T02590200  RH  070%=      5-min Rain = 0
KAHS 221425Z 22011KT 26/20 A2987 RMK A01 T02610203  RH  070%=      5-min Rain = 0
KAHS 221426Z 22013KT 26/20 A2987 RMK A01 T02610200  RH  069%=      5-min Rain = 0
KAHS 221427Z 22012KT 26/20 A2987 RMK A01 T02600200  RH  069%=      5-min Rain = 0
KAHS 221428Z 21014KT 26/20 A2987 RMK A01 T02600200  RH  069%=      5-min Rain = 0
KAHS 221429Z 22015KT 26/20 A2986 RMK A01 T02590199  RH  069%=      5-min Rain = 0
KAHS 221430Z 23013KT 26/20 A2987 RMK A01 T02590200  RH  070%=      5-min Rain = 0
KAHS 221431Z 23013KT 26/20 A2987 RMK A01 T02590200  RH  070%=      5-min Rain = 0
KAHS 221432Z 23012KT 26/20 A2987 RMK A01 T02600200  RH  070%=      5-min Rain = 0
KAHS 221433Z 21010KT 26/20 A2987 RMK A01 T02600201  RH  070%=      5-min Rain = 0
KAHS 221434Z 22011KT 26/20 A2987 RMK A01 T02630204  RH  070%=      5-min Rain = 0
KAHS 221435Z 22011KT 26/20 A2987 RMK A01 T02640201  RH  069%=      5-min Rain = 0
KAHS 221436Z 22013G18KT 26/20 A2987 RMK A01 T02640202  RH  069%=      5-min Rain = 0
KAHS 221437Z 22013KT 26/20 A2987 RMK A01 T02640200  RH  068%=      5-min Rain = 0
KAHS 221438Z 22013KT 26/20 A2987 RMK A01 T02620200  RH  068%=      5-min Rain = 0
KAHS 221439Z 21011KT 26/20 A2987 RMK A01 T02630202  RH  069%=      5-min Rain = 0
KAHS 221440Z 21012KT 26/20 A2987 RMK A01 T02640201  RH  068%=      5-min Rain = 0
KAHS 221441Z 21013KT 26/20 A2987 RMK A01 T02640201  RH  068%=      5-min Rain = 0
KAHS 221442Z 21008KT 27/20 A2987 RMK A01 T02650203  RH  069%=      5-min Rain = 0
KAHS 221443Z 22011KT 27/20 A2987 RMK A01 T02680204  RH  068%=      5-min Rain = 0
KAHS 221444Z 23014KT 27/20 A2987 RMK A01 T02670201  RH  067%=      5-min Rain = 0
KAHS 221445Z 23012KT 27/20 A2987 RMK A01 T02660200  RH  067%=      5-min Rain = 0
KAHS 221446Z 22013KT 27/20 A2986 RMK A01 T02650200  RH  067%=      5-min Rain = 0
KAHS 221447Z 23013G19KT 27/20 A2987 RMK A01 T02660200  RH  067%=      5-min Rain = 0
KAHS 221448Z 23011KT 27/20 A2987 RMK A01 T02650200  RH  067%=      5-min Rain = 0
KAHS 221449Z 23011G16KT 27/20 A2987 RMK A01 T02670202  RH  067%=      5-min Rain = 0
KAHS 221450Z 24014KT 27/20 A2987 RMK A01 T02660199  RH  067%=      5-min Rain = 0
KAHS 221451Z 24011KT 27/20 A2987 RMK A01 T02650200  RH  068%=      5-min Rain = 0
KAHS 221452Z 22011G17KT 27/20 A2987 RMK A01 T02650200  RH  068%=      5-min Rain = 0
KAHS 221453Z 21013G19KT 27/20 A2987 RMK A01 T02680203  RH  068%=      5-min Rain = 0
KAHS 221454Z 22010G15KT 27/20 A2987 RMK A01 T02670200  RH  067%=      5-min Rain = 0
KAHS 221455Z 21012KT 27/20 A2987 RMK A01 T02680202  RH  067%=      5-min Rain = 0
KAHS 221456Z 21014G20KT 27/20 A2987 RMK A01 T02680200  RH  067%=      5-min Rain = 0
KAHS 221457Z 22012KT 27/20 A2987 RMK A01 T02670200  RH  067%=      5-min Rain = 0
KAHS 221458Z 23012G18KT 27/20 A2987 RMK A01 T02690202  RH  067%=      5-min Rain = 0
KAHS 221459Z 24014KT 27/20 A2987 RMK A01 T02680199  RH  066%=      5-min Rain = 0
KAHS 221500Z 24015KT 27/20 A2987 RMK A01 T02660199  RH  067%=      5-min Rain = 0
KAHS 221501Z 24013KT 27/20 A2987 RMK A01 T02660200  RH  067%=      5-min Rain = 0
KAHS 221502Z 24015KT 27/20 A2987 RMK A01 T02670200  RH  067%=      5-min Rain = 0
KAHS 221503Z 24013G18KT 27/20 A2987 RMK A01 T02680201  RH  067%=      5-min Rain = 0
KAHS 221504Z 24015KT 27/20 A2987 RMK A01 T02680200  RH  066%=      5-min Rain = 0
KAHS 221505Z 23015KT 27/20 A2987 RMK A01 T02680200  RH  066%=      5-min Rain = 0
KAHS 221506Z 23015KT 27/20 A2987 RMK A01 T02670199  RH  066%=      5-min Rain = 0
KAHS 221507Z 23012KT 27/20 A2987 RMK A01 T02670200  RH  067%=      5-min Rain = 0
KAHS 221508Z 23013KT 27/20 A2987 RMK A01 T02680201  RH  067%=      5-min Rain = 0
KAHS 221509Z 23011KT 27/20 A2987 RMK A01 T02680201  RH  067%=      5-min Rain = 0
KAHS 221510Z 24012KT 27/20 A2987 RMK A01 T02680202  RH  067%=      5-min Rain = 0
KAHS 221511Z 22013KT 27/20 A2987 RMK A01 T02680200  RH  067%=      5-min Rain = 0
KAHS 221512Z 23012KT 27/20 A2987 RMK A01 T02670201  RH  067%=      5-min Rain = 0
KAHS 221513Z 23011KT 27/20 A2987 RMK A01 T02680202  RH  067%=      5-min Rain = 0
KAHS 221514Z 23009KT 27/20 A2987 RMK A01 T02700203  RH  067%=      5-min Rain = 0
KAHS 221515Z 22012KT 27/20 A2987 RMK A01 T02720204  RH  066%=      5-min Rain = 0
KAHS 221516Z 23012KT 27/20 A2987 RMK A01 T02710202  RH  066%=      5-min Rain = 0
KAHS 221517Z 24012KT 27/20 A2986 RMK A01 T02710203  RH  067%=      5-min Rain = 0
KAHS 221518Z 21012KT 27/20 A2986 RMK A01 T02710203  RH  066%=      5-min Rain = 0
KAHS 221519Z 21013KT 27/20 A2986 RMK A01 T02710203  RH  066%=      5-min Rain = 0
KAHS 221520Z 22012KT 27/20 A2986 RMK A01 T02710202  RH  066%=      5-min Rain = 0
KAHS 221521Z 22013KT 27/20 A2986 RMK A01 T02710202  RH  066%=      5-min Rain = 0
KAHS 221522Z 22011G16KT 27/20 A2986 RMK A01 T02710202  RH  066%=      5-min Rain = 0
KAHS 221523Z 21013KT 27/20 A2986 RMK A01 T02720203  RH  066%=      5-min Rain = 0
KAHS 221524Z 22013KT 27/20 A2986 RMK A01 T02720202  RH  066%=      5-min Rain = 0
KAHS 221525Z 23012G17KT 27/20 A2986 RMK A01 T02720202  RH  065%=      5-min Rain = 0
KAHS 221526Z 25010KT 27/20 A2986 RMK A01 T02730203  RH  066%=      5-min Rain = 0
KAHS 221527Z 24012KT 28/20 A2986 RMK A01 T02760203  RH  064%=      5-min Rain = 0
KAHS 221528Z 25013KT 28/20 A2986 RMK A01 T02770201  RH  063%=      5-min Rain = 0
KAHS 221529Z 23008KT 28/20 A2986 RMK A01 T02750200  RH  063%=      5-min Rain = 0
KAHS 221530Z 24010G15KT 28/20 A2986 RMK A01 T02760202  RH  064%=      5-min Rain = 0
KAHS 221531Z 24013KT 28/20 A2986 RMK A01 T02750199  RH  063%=      5-min Rain = 0
KAHS 221532Z 24011KT 27/20 A2986 RMK A01 T02740201  RH  064%=      5-min Rain = 0
KAHS 221533Z 24011KT 28/20 A2986 RMK A01 T02750198  RH  063%=      5-min Rain = 0
KAHS 221534Z 25015G20KT 28/20 A2986 RMK A01 T02760200  RH  063%=      5-min Rain = 0
KAHS 221535Z 24013KT 28/20 A2986 RMK A01 T02750197  RH  063%=      5-min Rain = 0
KAHS 221536Z 24013KT 28/20 A2986 RMK A01 T02750199  RH  063%=      5-min Rain = 0
KAHS 221537Z 23013KT 28/20 A2986 RMK A01 T02760199  RH  063%=      5-min Rain = 0
KAHS 221538Z 23013KT 28/20 A2986 RMK A01 T02760199  RH  063%=      5-min Rain = 0
KAHS 221539Z 23010KT 28/20 A2986 RMK A01 T02750199  RH  063%=      5-min Rain = 0
KAHS 221540Z 24010KT 28/20 A2986 RMK A01 T02760200  RH  063%=      5-min Rain = 0
KAHS 221541Z 24010KT 28/20 A2986 RMK A01 T02780202  RH  063%=      5-min Rain = 0
KAHS 221542Z 24009G14KT 28/20 A2986 RMK A01 T02800201  RH  062%=      5-min Rain = 0
KAHS 221543Z 24011KT 28/20 A2986 RMK A01 T02790200  RH  062%=      5-min Rain = 0
KAHS 221544Z 24010KT 28/20 A2986 RMK A01 T02790201  RH  063%=      5-min Rain = 0
KAHS 221545Z 23010KT 28/20 A2986 RMK A01 T02790201  RH  062%=      5-min Rain = 0
KAHS 221546Z 25008KT 28/20 A2986 RMK A01 T02800202  RH  063%=      5-min Rain = 0
KAHS 221547Z 24010KT 28/20 A2986 RMK A01 T02810203  RH  062%=      5-min Rain = 0
KAHS 221548Z 25010KT 28/20 A2986 RMK A01 T02790199  RH  062%=      5-min Rain = 0
KAHS 221549Z 23009KT 28/20 A2986 RMK A01 T02780202  RH  063%=      5-min Rain = 0
KAHS 221550Z 25009KT 28/20 A2986 RMK A01 T02810202  RH  062%=      5-min Rain = 0
KAHS 221551Z 22008KT 28/21 A2986 RMK A01 T02830205  RH  062%=      5-min Rain = 0
KAHS 221552Z 25008KT 29/21 A2986 RMK A01 T02850205  RH  062%=      5-min Rain = 0
KAHS 221553Z 25008KT 28/20 A2986 RMK A01 T02840201  RH  061%=      5-min Rain = 0
KAHS 221554Z 25005G10KT 28/20 A2986 RMK A01 T02840203  RH  062%=      5-min Rain = 0
KAHS 221555Z 23010KT 29/20 A2986 RMK A01 T02850204  RH  061%=      5-min Rain = 0
KAHS 221556Z 23008G13KT 29/20 A2986 RMK A01 T02860204  RH  061%=      5-min Rain = 0
KAHS 221557Z 22009KT 29/20 A2986 RMK A01 T02880203  RH  060%=      5-min Rain = 0
KAHS 221558Z 23008KT 29/20 A2986 RMK A01 T02870200  RH  059%=      5-min Rain = 0
KAHS 221559Z 23008KT 29/20 A2986 RMK A01 T02880201  RH  060%=      5-min Rain = 0
KAHS 221600Z 22007KT 29/20 A2986 RMK A01 T02890202  RH  059%=      5-min Rain = 0
KAHS 221601Z 22010KT 29/20 A2986 RMK A01 T02880200  RH  059%=      5-min Rain = 0
KAHS 221602Z 25006KT 29/20 A2986 RMK A01 T02880203  RH  060%=      5-min Rain = 0
KAHS 221603Z 25008KT 29/20 A2986 RMK A01 T02910204  RH  059%=      5-min Rain = 0
KAHS 221604Z 23008G14KT 29/20 A2986 RMK A01 T02940204  RH  058%=      5-min Rain = 0
KAHS 221605Z 24012KT 29/20 A2986 RMK A01 T02940200  RH  057%=      5-min Rain = 0
KAHS 221606Z 25007KT 29/20 A2986 RMK A01 T02910196  RH  056%=      5-min Rain = 0
KAHS 221607Z 22009KT 29/20 A2986 RMK A01 T02920198  RH  057%=      5-min Rain = 0
KAHS 221608Z 22009KT 29/20 A2986 RMK A01 T02930195  RH  056%=      5-min Rain = 0
KAHS 221609Z 23013KT 29/19 A2986 RMK A01 T02920192  RH  055%=      5-min Rain = 0
KAHS 221610Z 23010KT 29/19 A2986 RMK A01 T02900192  RH  055%=      5-min Rain = 0
KAHS 221611Z 23008KT 29/19 A2986 RMK A01 T02890193  RH  056%=      5-min Rain = 0
KAHS 221612Z 25007KT 29/19 A2985 RMK A01 T02880193  RH  056%=      5-min Rain = 0
KAHS 221613Z 24007KT 29/19 A2985 RMK A01 T02880194  RH  057%=      5-min Rain = 0
KAHS 221614Z 21011KT 29/19 A2985 RMK A01 T02890193  RH  056%=      5-min Rain = 0
KAHS 221615Z 21012KT 29/19 A2985 RMK A01 T02890191  RH  055%=      5-min Rain = 0
KAHS 221616Z 22009KT 29/19 A2985 RMK A01 T02900191  RH  055%=      5-min Rain = 0
KAHS 221617Z 22011G21KT 29/19 A2985 RMK A01 T02910190  RH  055%=      5-min Rain = 0
KAHS 221618Z 23015G22KT 29/19 A2985 RMK A01 T02920185  RH  053%=      5-min Rain = 0
KAHS 221619Z 26013KT 29/19 A2985 RMK A01 T02920185  RH  052%=      5-min Rain = 0
KAHS 221620Z 27010KT 29/18 A2985 RMK A01 T02920183  RH  052%=      5-min Rain = 0
KAHS 221621Z 26009KT 29/19 A2985 RMK A01 T02930186  RH  053%=      5-min Rain = 0
KAHS 221622Z 27012KT 30/19 A2985 RMK A01 T02950187  RH  052%=      5-min Rain = 0
KAHS 221623Z 25011KT 29/19 A2985 RMK A01 T02940189  RH  053%=      5-min Rain = 0
KAHS 221624Z 27010KT 30/19 A2985 RMK A01 T02960190  RH  053%=      5-min Rain = 0
KAHS 221625Z 27010KT 30/19 A2985 RMK A01 T02960190  RH  053%=      5-min Rain = 0
KAHS 221626Z 26009KT 30/19 A2985 RMK A01 T02950190  RH  053%=      5-min Rain = 0
KAHS 221627Z 26012KT 30/19 A2985 RMK A01 T02960191  RH  053%=      5-min Rain = 0
KAHS 221628Z 26011KT 30/19 A2985 RMK A01 T02950190  RH  053%=      5-min Rain = 0
KAHS 221629Z 23012KT 30/19 A2985 RMK A01 T02950190  RH  053%=      5-min Rain = 0
KAHS 221630Z 22007KT 30/19 A2985 RMK A01 T02950188  RH  052%=      5-min Rain = 0
KAHS 221631Z 21008KT 30/19 A2985 RMK A01 T02970188  RH  052%=      5-min Rain = 0
KAHS 221632Z 23008KT 30/19 A2985 RMK A01 T02970187  RH  052%=      5-min Rain = 0
KAHS 221633Z 23006KT 30/19 A2985 RMK A01 T02970188  RH  052%=      5-min Rain = 0
KAHS 221634Z 22011G17KT 30/19 A2985 RMK A01 T02970189  RH  052%=      5-min Rain = 0
KAHS 221635Z 23015KT 30/19 A2985 RMK A01 T02970187  RH  052%=      5-min Rain = 0
KAHS 221636Z 23012KT 30/19 A2985 RMK A01 T02950187  RH  052%=      5-min Rain = 0
KAHS 221637Z 24009KT 30/19 A2985 RMK A01 T02960190  RH  053%=      5-min Rain = 0
KAHS 221638Z 24008KT 30/19 A2985 RMK A01 T02960187  RH  052%=      5-min Rain = 0
KAHS 221639Z 26009KT 30/19 A2985 RMK A01 T02950189  RH  053%=      5-min Rain = 0
KAHS 221640Z 25008KT 30/19 A2985 RMK A01 T02950191  RH  054%=      5-min Rain = 0
KAHS 221641Z 21010KT 30/19 A2985 RMK A01 T02980193  RH  053%=      5-min Rain = 0
KAHS 221642Z 23007G13KT 30/19 A2985 RMK A01 T02970190  RH  053%=      5-min Rain = 0
KAHS 221643Z 22009KT 30/19 A2985 RMK A01 T02970190  RH  053%=      5-min Rain = 0
KAHS 221644Z 22009KT 30/19 A2985 RMK A01 T02960190  RH  053%=      5-min Rain = 0
KAHS 221645Z 22008KT 30/19 A2985 RMK A01 T02980190  RH  052%=      5-min Rain = 0
KAHS 221646Z 22014KT 30/19 A2985 RMK A01 T03010187  RH  051%=      5-min Rain = 0
KAHS 221647Z 23011KT 30/18 A2985 RMK A01 T02990184  RH  050%=      5-min Rain = 0
KAHS 221648Z 25012KT 30/18 A2985 RMK A01 T02970184  RH  050%=      5-min Rain = 0
KAHS 221649Z 25011KT 30/18 A2985 RMK A01 T02980184  RH  050%=      5-min Rain = 0
KAHS 221650Z 26008KT 30/18 A2985 RMK A01 T02990183  RH  050%=      5-min Rain = 0
KAHS 221651Z 25007KT 30/18 A2985 RMK A01 T03000180  RH  049%=      5-min Rain = 0
KAHS 221652Z 23011KT 30/18 A2985 RMK A01 T03010183  RH  049%=      5-min Rain = 0
KAHS 221653Z 26011KT 30/17 A2985 RMK A01 T03030170  RH  045%=      5-min Rain = 0
KAHS 221654Z 26010KT 30/17 A2985 RMK A01 T03030171  RH  045%=      5-min Rain = 0
KAHS 221655Z 24006KT 30/18 A2985 RMK A01 T03020178  RH  047%=      5-min Rain = 0
KAHS 221656Z 26006KT 30/18 A2985 RMK A01 T03040178  RH  047%=      5-min Rain = 0
KAHS 221657Z 25009KT 30/18 A2985 RMK A01 T03030178  RH  047%=      5-min Rain = 0
KAHS 221658Z 24008KT 30/18 A2985 RMK A01 T03040180  RH  048%=      5-min Rain = 0
KAHS 221659Z 24009KT 31/18 A2985 RMK A01 T03070179  RH  046%=      5-min Rain = 0
KAHS 221700Z 23009KT 31/17 A2985 RMK A01 T03060172  RH  045%=      5-min Rain = 0
KAHS 221701Z 21009KT 31/18 A2985 RMK A01 T03050177  RH  046%=      5-min Rain = 0
KAHS 221702Z 23010KT 30/18 A2985 RMK A01 T03040181  RH  048%=      5-min Rain = 0
KAHS 221703Z 21010KT 30/19 A2985 RMK A01 T03040185  RH  049%=      5-min Rain = 0
KAHS 221704Z 23008KT 31/19 A2985 RMK A01 T03050186  RH  049%=      5-min Rain = 0
KAHS 221705Z 23006KT 31/19 A2985 RMK A01 T03060186  RH  049%=      5-min Rain = 0
KAHS 221706Z 24007KT 31/18 A2985 RMK A01 T03090182  RH  047%=      5-min Rain = 0
KAHS 221707Z 26009KT 31/18 A2985 RMK A01 T03080183  RH  047%=      5-min Rain = 0
KAHS 221708Z 25009KT 31/19 A2985 RMK A01 T03070186  RH  048%=      5-min Rain = 0
KAHS 221709Z 25007KT 31/19 A2985 RMK A01 T03080187  RH  048%=      5-min Rain = 0
KAHS 221710Z 24007KT 31/19 A2985 RMK A01 T03120187  RH  048%=      5-min Rain = 0
KAHS 221711Z 23007KT 31/18 A2985 RMK A01 T03110183  RH  047%=      5-min Rain = 0
KAHS 221712Z 22009KT 31/18 A2985 RMK A01 T03090181  RH  047%=      5-min Rain = 0
KAHS 221713Z 21011KT 31/18 A2985 RMK A01 T03070177  RH  046%=      5-min Rain = 0
KAHS 221714Z 22009KT 31/18 A2985 RMK A01 T03080177  RH  046%=      5-min Rain = 0
KAHS 221715Z 23010KT 31/18 A2985 RMK A01 T03100179  RH  046%=      5-min Rain = 0
KAHS 221716Z 23011KT 31/18 A2985 RMK A01 T03100176  RH  045%=      5-min Rain = 0
KAHS 221717Z 23008KT 31/18 A2985 RMK A01 T03070176  RH  046%=      5-min Rain = 0
KAHS 221718Z 24008KT 31/18 A2985 RMK A01 T03070181  RH  047%=      5-min Rain = 0
KAHS 221719Z 24008KT 31/18 A2985 RMK A01 T03070181  RH  047%=      5-min Rain = 0
KAHS 221720Z 21007KT 31/18 A2985 RMK A01 T03050178  RH  047%=      5-min Rain = 0
KAHS 221721Z 22006KT 30/18 A2985 RMK A01 T03040179  RH  047%=      5-min Rain = 0
KAHS 221722Z 23009KT 31/18 A2985 RMK A01 T03060183  RH  048%=      5-min Rain = 0
KAHS 221723Z 23011KT 31/18 A2985 RMK A01 T03070179  RH  046%=      5-min Rain = 0
KAHS 221724Z 23010KT 31/17 A2985 RMK A01 T03070174  RH  045%=      5-min Rain = 0
KAHS 221725Z 25010KT 31/18 A2985 RMK A01 T03070175  RH  045%=      5-min Rain = 0
KAHS 221726Z 26010KT 31/18 A2985 RMK A01 T03070176  RH  046%=      5-min Rain = 0
KAHS 221727Z 25005KT 31/17 A2985 RMK A01 T03050174  RH  045%=      5-min Rain = 0
KAHS 221728Z 26006KT 31/18 A2985 RMK A01 T03090182  RH  047%=      5-min Rain = 0
KAHS 221729Z 23005KT 31/18 A2985 RMK A01 T03110178  RH  045%=      5-min Rain = 0
KAHS 221730Z 19007KT 31/18 A2985 RMK A01 T03130178  RH  045%=      5-min Rain = 0
KAHS 221731Z 22006G12KT 31/17 A2985 RMK A01 T03130172  RH  043%=      5-min Rain = 0
KAHS 221732Z 23009KT 31/17 A2985 RMK A01 T03120165  RH  041%=      5-min Rain = 0
KAHS 221733Z 23004KT 31/16 A2985 RMK A01 T03100161  RH  041%=      5-min Rain = 0
KAHS 221734Z 23006KT 31/16 A2985 RMK A01 T03140163  RH  040%=      5-min Rain = 0
KAHS 221735Z 23007KT 32/17 A2985 RMK A01 T03160166  RH  041%=      5-min Rain = 0
KAHS 221736Z 23007KT 32/17 A2985 RMK A01 T03150168  RH  041%=      5-min Rain = 0
KAHS 221737Z 23008KT 32/17 A2985 RMK A01 T03150169  RH  042%=      5-min Rain = 0
KAHS 221738Z 22006KT 31/17 A2985 RMK A01 T03140171  RH  042%=      5-min Rain = 0
KAHS 221739Z 22005KT 32/18 A2985 RMK A01 T03170176  RH  043%=      5-min Rain = 0
KAHS 221740Z 21005KT 32/17 A2985 RMK A01 T03200173  RH  042%=      5-min Rain = 0
KAHS 221741Z 23005KT 32/17 A2985 RMK A01 T03210174  RH  042%=      5-min Rain = 0
KAHS 221742Z 24007KT 32/17 A2985 RMK A01 T03200173  RH  042%=      5-min Rain = 0
KAHS 221743Z 24008KT 32/17 A2985 RMK A01 T03180173  RH  042%=      5-min Rain = 0
KAHS 221744Z 25007KT 32/17 A2985 RMK A01 T03190173  RH  042%=      5-min Rain = 0
KAHS 221745Z 25009KT 32/16 A2985 RMK A01 T03210160  RH  038%=      5-min Rain = 0
KAHS 221746Z 25010KT 32/15 A2985 RMK A01 T03200150  RH  036%=      5-min Rain = 0
KAHS 221747Z 23011KT 32/15 A2985 RMK A01 T03180154  RH  037%=      5-min Rain = 0
KAHS 221748Z 24009KT 32/15 A2985 RMK A01 T03170153  RH  037%=      5-min Rain = 0
KAHS 221749Z 26011KT 32/15 A2985 RMK A01 T03160149  RH  036%=      5-min Rain = 0
KAHS 221750Z 25012KT 32/14 A2985 RMK A01 T03180143  RH  035%=      5-min Rain = 0
KAHS 221751Z 25012KT 32/13 A2985 RMK A01 T03170131  RH  032%=      5-min Rain = 0
KAHS 221752Z 26010KT 32/12 A2985 RMK A01 T03170121  RH  030%=      5-min Rain = 0
KAHS 221753Z 27006KT 32/13 A2985 RMK A01 T03190125  RH  030%=      5-min Rain = 0
KAHS 221754Z 25007KT 32/13 A2985 RMK A01 T03220134  RH  032%=      5-min Rain = 0
KAHS 221755Z 25005KT 32/15 A2985 RMK A01 T03230146  RH  034%=      5-min Rain = 0
KAHS 221756Z 22010KT 32/15 A2985 RMK A01 T03220151  RH  036%=      5-min Rain = 0
KAHS 221757Z 24010KT 32/16 A2985 RMK A01 T03200156  RH  037%=      5-min Rain = 0
KAHS 221758Z 23012KT 32/16 A2985 RMK A01 T03190155  RH  037%=      5-min Rain = 0
KAHS 221759Z 23011KT 32/15 A2985 RMK A01 T03190150  RH  036%=      5-min Rain = 0
KAHS 221800Z 21007KT 32/15 A2985 RMK A01 T03180146  RH  035%=      5-min Rain = 0
KAHS 221801Z 22008KT 32/15 A2985 RMK A01 T03200149  RH  036%=      5-min Rain = 0
KAHS 221802Z 21008KT 32/15 A2985 RMK A01 T03200152  RH  036%=      5-min Rain = 0
KAHS 221803Z 22006KT 32/16 A2985 RMK A01 T03220159  RH  037%=      5-min Rain = 0
KAHS 221804Z 25009KT 32/16 A2985 RMK A01 T03240160  RH  037%=      5-min Rain = 0
KAHS 221805Z 24009KT 33/15 A2985 RMK A01 T03260151  RH  035%=      5-min Rain = 0
KAHS 221806Z 22007KT 32/14 A2985 RMK A01 T03230141  RH  033%=      5-min Rain = 0
KAHS 221807Z 23006KT 32/14 A2985 RMK A01 T03210139  RH  033%=      5-min Rain = 0
KAHS 221808Z 24006KT 32/15 A2985 RMK A01 T03220148  RH  035%=      5-min Rain = 0
KAHS 221809Z 21008KT 33/16 A2985 RMK A01 T03260155  RH  036%=      5-min Rain = 0
KAHS 221810Z 21009KT 32/16 A2985 RMK A01 T03240157  RH  037%=      5-min Rain = 0
KAHS 221811Z 23007KT 32/16 A2985 RMK A01 T03200156  RH  037%=      5-min Rain = 0
KAHS 221812Z 25008KT 32/16 A2985 RMK A01 T03230157  RH  037%=      5-min Rain = 0
KAHS 221813Z 24008KT 32/16 A2985 RMK A01 T03230156  RH  037%=      5-min Rain = 0
KAHS 221814Z 24006KT 32/16 A2985 RMK A01 T03230157  RH  037%=      5-min Rain = 0
KAHS 221815Z 23006KT 32/16 A2985 RMK A01 T03220156  RH  037%=      5-min Rain = 0
KAHS 221816Z 21008KT 32/15 A2985 RMK A01 T03190153  RH  037%=      5-min Rain = 0
KAHS 221817Z 23008KT 32/16 A2985 RMK A01 T03170155  RH  038%=      5-min Rain = 0
KAHS 221818Z 25007KT 32/15 A2985 RMK A01 T03190154  RH  037%=      5-min Rain = 0
KAHS 221819Z 24007KT 33/16 A2985 RMK A01 T03260157  RH  036%=      5-min Rain = 0
KAHS 221820Z 22008KT 33/16 A2985 RMK A01 T03280157  RH  036%=      5-min Rain = 0
KAHS 221821Z 19010KT 33/15 A2984 RMK A01 T03270151  RH  035%=      5-min Rain = 0
KAHS 221822Z 21010KT 33/15 A2984 RMK A01 T03270147  RH  034%=      5-min Rain = 0
KAHS 221823Z 20010KT 33/14 A2984 RMK A01 T03270135  RH  031%=      5-min Rain = 0
KAHS 221824Z 20009KT 33/14 A2984 RMK A01 T03250137  RH  032%=      5-min Rain = 0
KAHS 221825Z 21007KT 33/14 A2984 RMK A01 T03250140  RH  032%=      5-min Rain = 0
KAHS 221826Z 22009KT 33/14 A2984 RMK A01 T03260141  RH  033%=      5-min Rain = 0
KAHS 221827Z 22009KT 33/14 A2984 RMK A01 T03260141  RH  033%=      5-min Rain = 0
KAHS 221828Z 22008KT 33/15 A2984 RMK A01 T03250146  RH  034%=      5-min Rain = 0
KAHS 221829Z 20007KT 33/15 A2984 RMK A01 T03280151  RH  035%=      5-min Rain = 0
KAHS 221830Z 21009KT 33/15 A2984 RMK A01 T03290154  RH  035%=      5-min Rain = 0
KAHS 221831Z 24012KT 33/15 A2984 RMK A01 T03290148  RH  034%=      5-min Rain = 0
KAHS 221832Z 24009KT 33/15 A2984 RMK A01 T03270149  RH  034%=      5-min Rain = 0
KAHS 221833Z 23007KT 33/15 A2984 RMK A01 T03280150  RH  034%=      5-min Rain = 0
KAHS 221834Z 23008KT 33/15 A2984 RMK A01 T03280149  RH  034%=      5-min Rain = 0
KAHS 221835Z 21005KT 33/15 A2984 RMK A01 T03280153  RH  035%=      5-min Rain = 0
KAHS 221836Z 21009KT 33/15 A2984 RMK A01 T03310153  RH  034%=      5-min Rain = 0
KAHS 221837Z 23006KT 33/15 A2984 RMK A01 T03290145  RH  033%=      5-min Rain = 0
KAHS 221838Z 22005KT 33/15 A2984 RMK A01 T03270147  RH  034%=      5-min Rain = 0
KAHS 221839Z 17010KT 33/15 A2984 RMK A01 T03290146  RH  033%=      5-min Rain = 0
KAHS 221840Z 19008G13KT 33/14 A2984 RMK A01 T03290141  RH  032%=      5-min Rain = 0
KAHS 221841Z 18005KT 33/14 A2984 RMK A01 T03280140  RH  032%=      5-min Rain = 0
KAHS 221842Z 20006KT 33/14 A2984 RMK A01 T03300143  RH  032%=      5-min Rain = 0
KAHS 221843Z 20006KT 33/14 A2984 RMK A01 T03290140  RH  032%=      5-min Rain = 0
KAHS 221844Z 18006KT 33/14 A2984 RMK A01 T03270138  RH  032%=      5-min Rain = 0
KAHS 221845Z 19005KT 33/14 A2984 RMK A01 T03280144  RH  033%=      5-min Rain = 0
KAHS 221846Z 19009KT 33/15 A2984 RMK A01 T03310150  RH  034%=      5-min Rain = 0
KAHS 221847Z 21009KT 33/15 A2984 RMK A01 T03300148  RH  033%=      5-min Rain = 0
KAHS 221848Z 20010KT 33/13 A2984 RMK A01 T03290133  RH  030%=      5-min Rain = 0
KAHS 221849Z 21007KT 33/14 A2984 RMK A01 T03310136  RH  031%=      5-min Rain = 0
KAHS 221850Z 22009KT 33/14 A2984 RMK A01 T03330137  RH  031%=      5-min Rain = 0
KAHS 221851Z 22007KT 33/14 A2984 RMK A01 T03300136  RH  031%=      5-min Rain = 0
KAHS 221852Z 23007KT 33/14 A2984 RMK A01 T03280138  RH  032%=      5-min Rain = 0
KAHS 221853Z 25006KT 33/14 A2984 RMK A01 T03290142  RH  032%=      5-min Rain = 0
KAHS 221854Z 23003KT 33/14 A2984 RMK A01 T03310144  RH  032%=      5-min Rain = 0
KAHS 221855Z 24005KT 33/14 A2983 RMK A01 T03320143  RH  032%=      5-min Rain = 0
KAHS 221856Z 24007KT 33/14 A2983 RMK A01 T03340143  RH  032%=      5-min Rain = 0
KAHS 221857Z 21008KT 33/15 A2983 RMK A01 T03340146  RH  032%=      5-min Rain = 0
KAHS 221858Z 20006KT 33/14 A2983 RMK A01 T03330142  RH  032%=      5-min Rain = 0
KAHS 221859Z 17008G13KT 33/15 A2983 RMK A01 T03330148  RH  033%=      5-min Rain = 0
KAHS 221900Z 26009G14KT 34/15 A2983 RMK A01 T03350148  RH  032%=      5-min Rain = 0
KAHS 221901Z 25009KT 33/14 A2983 RMK A01 T03340136  RH  030%=      5-min Rain = 0
KAHS 221902Z 22007KT 33/14 A2983 RMK A01 T03340143  RH  032%=      5-min Rain = 0
KAHS 221903Z 20009KT 34/14 A2983 RMK A01 T03370141  RH  031%=      5-min Rain = 0
KAHS 221904Z 20011KT 34/14 A2983 RMK A01 T03360138  RH  030%=      5-min Rain = 0
KAHS 221905Z 20010KT 34/14 A2983 RMK A01 T03350136  RH  030%=      5-min Rain = 0
KAHS 221906Z 22007KT 33/13 A2983 RMK A01 T03340133  RH  030%=      5-min Rain = 0
KAHS 221907Z 24004KT 33/13 A2983 RMK A01 T03330134  RH  030%=      5-min Rain = 0
KAHS 221908Z 20006G11KT 34/14 A2983 RMK A01 T03350137  RH  030%=      5-min Rain = 0
KAHS 221909Z 20009KT 34/14 A2983 RMK A01 T03380141  RH  031%=      5-min Rain = 0
KAHS 221910Z 20008KT 34/14 A2983 RMK A01 T03350137  RH  030%=      5-min Rain = 0
KAHS 221911Z 17007KT 33/14 A2983 RMK A01 T03340136  RH  030%=      5-min Rain = 0
KAHS 221912Z 19006KT 33/13 A2983 RMK A01 T03320133  RH  030%=      5-min Rain = 0
KAHS 221913Z 20005G10KT 33/14 A2983 RMK A01 T03330136  RH  030%=      5-min Rain = 0
KAHS 221914Z 20010KT 33/13 A2983 RMK A01 T03340133  RH  030%=      5-min Rain = 0
KAHS 221915Z 20007KT 34/13 A2983 RMK A01 T03350133  RH  029%=      5-min Rain = 0
KAHS 221916Z 27010KT 34/13 A2983 RMK A01 T03360132  RH  029%=      5-min Rain = 0
KAHS 221917Z 24008KT 34/13 A2983 RMK A01 T03350131  RH  029%=      5-min Rain = 0
KAHS 221918Z 20006KT 34/13 A2983 RMK A01 T03350131  RH  029%=      5-min Rain = 0
KAHS 221919Z 26007KT 34/13 A2983 RMK A01 T03350134  RH  030%=      5-min Rain = 0
KAHS 221920Z 28005KT 34/13 A2983 RMK A01 T03350129  RH  029%=      5-min Rain = 0
KAHS 221921Z 22007G12KT 34/14 A2983 RMK A01 T03370137  RH  030%=      5-min Rain = 0
KAHS 221922Z 25008KT 34/14 A2983 RMK A01 T03370137  RH  030%=      5-min Rain = 0
KAHS 221923Z 24008KT 34/14 A2983 RMK A01 T03380135  RH  029%=      5-min Rain = 0
KAHS 221924Z 25007KT 34/14 A2983 RMK A01 T03370135  RH  030%=      5-min Rain = 0
KAHS 221925Z 22009KT 34/14 A2983 RMK A01 T03360135  RH  030%=      5-min Rain = 0
KAHS 221926Z 23007KT 33/13 A2983 RMK A01 T03310130  RH  030%=      5-min Rain = 0
KAHS 221927Z 22005KT 33/13 A2983 RMK A01 T03270133  RH  031%=      5-min Rain = 0
KAHS 221928Z 20006KT 33/14 A2983 RMK A01 T03270135  RH  031%=      5-min Rain = 0
KAHS 221929Z 17006KT 33/14 A2983 RMK A01 T03300137  RH  031%=      5-min Rain = 0
KAHS 221930Z 19007KT 33/14 A2983 RMK A01 T03330136  RH  030%=      5-min Rain = 0
KAHS 221931Z 21007KT 33/13 A2983 RMK A01 T03290131  RH  030%=      5-min Rain = 0
KAHS 221932Z 22005KT 33/13 A2983 RMK A01 T03250129  RH  030%=      5-min Rain = 0
KAHS 221933Z 22003KT 32/13 A2983 RMK A01 T03230129  RH  031%=      5-min Rain = 0
KAHS 221934Z 21002KT 32/13 A2983 RMK A01 T03240129  RH  030%=      5-min Rain = 0
KAHS 221935Z 25003KT 33/13 A2982 RMK A01 T03260128  RH  030%=      5-min Rain = 0
KAHS 221936Z 26003KT 33/13 A2982 RMK A01 T03280132  RH  031%=      5-min Rain = 0
KAHS 221937Z 20002KT 33/14 A2982 RMK A01 T03310136  RH  031%=      5-min Rain = 0
KAHS 221938Z 20003KT 34/14 A2982 RMK A01 T03350137  RH  030%=      5-min Rain = 0
KAHS 221939Z 22006KT 34/14 A2982 RMK A01 T03370139  RH  030%=      5-min Rain = 0
KAHS 221940Z 20008KT 34/14 A2982 RMK A01 T03400140  RH  030%=      5-min Rain = 0
KAHS 221941Z 20010KT 34/14 A2982 RMK A01 T03390138  RH  030%=      5-min Rain = 0
KAHS 221942Z 20010KT 34/14 A2982 RMK A01 T03380135  RH  029%=      5-min Rain = 0
KAHS 221943Z 22011KT 34/13 A2982 RMK A01 T03370132  RH  029%=      5-min Rain = 0
KAHS 221944Z 22009KT 34/14 A2982 RMK A01 T03370135  RH  029%=      5-min Rain = 0
KAHS 221945Z 22007KT 34/13 A2982 RMK A01 T03380132  RH  029%=      5-min Rain = 0
KAHS 221946Z 20006KT 34/13 A2982 RMK A01 T03350129  RH  029%=      5-min Rain = 0
KAHS 221947Z 20004KT 33/13 A2982 RMK A01 T03320128  RH  029%=      5-min Rain = 0
KAHS 221948Z 15001KT 33/13 A2982 RMK A01 T03310129  RH  029%=      5-min Rain = 0
KAHS 221949Z 21005KT 33/13 A2982 RMK A01 T03330133  RH  030%=      5-min Rain = 0
KAHS 221950Z 23006KT 34/14 A2982 RMK A01 T03350136  RH  030%=      5-min Rain = 0
KAHS 221951Z 25006KT 34/13 A2982 RMK A01 T03370134  RH  029%=      5-min Rain = 0
KAHS 221952Z 20006KT 34/14 A2982 RMK A01 T03350136  RH  030%=      5-min Rain = 0
KAHS 221953Z 17003KT 34/14 A2982 RMK A01 T03380141  RH  031%=      5-min Rain = 0
KAHS 221954Z 22006KT 34/14 A2982 RMK A01 T03410141  RH  030%=      5-min Rain = 0
KAHS 221955Z 20005KT 34/14 A2982 RMK A01 T03410136  RH  029%=      5-min Rain = 0
KAHS 221956Z 19008KT 34/14 A2982 RMK A01 T03400137  RH  029%=      5-min Rain = 0
KAHS 221957Z 19008KT 34/14 A2982 RMK A01 T03400141  RH  030%=      5-min Rain = 0
KAHS 221958Z 23009KT 34/14 A2982 RMK A01 T03420137  RH  029%=      5-min Rain = 0
KAHS 221959Z 23007KT 34/13 A2982 RMK A01 T03380128  RH  028%=      5-min Rain = 0
KAHS 222000Z 21008KT 34/13 A2982 RMK A01 T03380134  RH  029%=      5-min Rain = 0
KAHS 222001Z 20008KT 34/14 A2982 RMK A01 T03420138  RH  029%=      5-min Rain = 0
KAHS 222002Z 21008KT 34/14 A2982 RMK A01 T03440136  RH  029%=      5-min Rain = 0
KAHS 222003Z 20005KT 34/13 A2982 RMK A01 T03410127  RH  027%=      5-min Rain = 0
KAHS 222004Z 25006KT 34/13 A2981 RMK A01 T03380130  RH  028%=      5-min Rain = 0
KAHS 222005Z 23005KT 34/13 A2981 RMK A01 T03400131  RH  028%=      5-min Rain = 0
KAHS 222006Z 23006KT 34/13 A2981 RMK A01 T03400133  RH  029%=      5-min Rain = 0
KAHS 222007Z 23007KT 34/13 A2981 RMK A01 T03410133  RH  029%=      5-min Rain = 0
KAHS 222008Z 22005KT 34/14 A2981 RMK A01 T03410137  RH  029%=      5-min Rain = 0
KAHS 222009Z 21010KT 34/14 A2981 RMK A01 T03430136  RH  029%=      5-min Rain = 0
KAHS 222010Z 22011KT 34/13 A2981 RMK A01 T03420131  RH  028%=      5-min Rain = 0
KAHS 222011Z 20009KT 34/13 A2981 RMK A01 T03410132  RH  028%=      5-min Rain = 0
KAHS 222012Z 23011KT 34/13 A2981 RMK A01 T03400130  RH  028%=      5-min Rain = 0
KAHS 222013Z 23011KT 34/13 A2981 RMK A01 T03390134  RH  029%=      5-min Rain = 0
KAHS 222014Z 22010KT 34/13 A2981 RMK A01 T03400134  RH  029%=      5-min Rain = 0
KAHS 222015Z 23010KT 34/13 A2981 RMK A01 T03390132  RH  028%=      5-min Rain = 0
KAHS 222016Z 21010G15KT 34/14 A2981 RMK A01 T03420137  RH  029%=      5-min Rain = 0
KAHS 222017Z 18010KT 34/14 A2981 RMK A01 T03440137  RH  029%=      5-min Rain = 0
KAHS 222018Z 21007KT 34/13 A2981 RMK A01 T03440134  RH  028%=      5-min Rain = 0
KAHS 222019Z 22009KT 34/13 A2981 RMK A01 T03440133  RH  028%=      5-min Rain = 0
KAHS 222020Z 20009KT 34/13 A2981 RMK A01 T03440134  RH  028%=      5-min Rain = 0
KAHS 222021Z 20007KT 34/13 A2981 RMK A01 T03430134  RH  028%=      5-min Rain = 0
KAHS 222022Z 18008KT 35/14 A2981 RMK A01 T03460138  RH  029%=      5-min Rain = 0
KAHS 222023Z 19006KT 35/14 A298 RMK A01 T03470137  RH  028%=      5-min Rain = 0
KAHS 222024Z 18004KT 35/14 A298 RMK A01 T03490140  RH  029%=      5-min Rain = 0
KAHS 222025Z 19011KT 35/14 A298 RMK A01 T03490139  RH  028%=      5-min Rain = 0
KAHS 222026Z 17011KT 35/14 A298 RMK A01 T03480140  RH  029%=      5-min Rain = 0
KAHS 222027Z 17008KT 35/14 A298 RMK A01 T03460136  RH  028%=      5-min Rain = 0
KAHS 222028Z 17007KT 35/14 A298 RMK A01 T03450135  RH  028%=      5-min Rain = 0
KAHS 222029Z 18004KT 34/14 A298 RMK A01 T03440135  RH  028%=      5-min Rain = 0
KAHS 222030Z 17007KT 35/14 A298 RMK A01 T03450137  RH  029%=      5-min Rain = 0
KAHS 222031Z 17006KT 35/14 A298 RMK A01 T03450135  RH  028%=      5-min Rain = 0
KAHS 222032Z 17006KT 35/14 A298 RMK A01 T03460138  RH  029%=      5-min Rain = 0
KAHS 222033Z 17005KT 35/14 A298 RMK A01 T03460136  RH  028%=      5-min Rain = 0
KAHS 222034Z 16004KT 35/14 A298 RMK A01 T03470137  RH  028%=      5-min Rain = 0
KAHS 222035Z 14005KT 35/13 A298 RMK A01 T03460133  RH  028%=      5-min Rain = 0
KAHS 222036Z 17006KT 34/13 A298 RMK A01 T03420134  RH  029%=      5-min Rain = 0
KAHS 222037Z 18009KT 34/14 A298 RMK A01 T03390136  RH  029%=      5-min Rain = 0
KAHS 222038Z 19011KT 34/13 A298 RMK A01 T03370132  RH  029%=      5-min Rain = 0
KAHS 222039Z 19010KT 34/13 A298 RMK A01 T03370130  RH  029%=      5-min Rain = 0
KAHS 222040Z 19006KT 34/13 A298 RMK A01 T03380128  RH  028%=      5-min Rain = 0
KAHS 222041Z 15006KT 34/13 A298 RMK A01 T03400133  RH  029%=      5-min Rain = 0
KAHS 222042Z 17004KT 34/13 A298 RMK A01 T03420130  RH  028%=      5-min Rain = 0
KAHS 222043Z 17004KT 34/13 A298 RMK A01 T03420133  RH  028%=      5-min Rain = 0
KAHS 222044Z 18003KT 35/14 A298 RMK A01 T03450135  RH  028%=      5-min Rain = 0
KAHS 222045Z 18004KT 35/14 A2979 RMK A01 T03470135  RH  028%=      5-min Rain = 0
KAHS 222046Z 17007KT 35/14 A2979 RMK A01 T03480137  RH  028%=      5-min Rain = 0
KAHS 222047Z 18014KT 35/14 A2979 RMK A01 T03480135  RH  028%=      5-min Rain = 0
KAHS 222048Z 18014KT 35/13 A2979 RMK A01 T03450132  RH  028%=      5-min Rain = 0
KAHS 222049Z 19010KT 34/13 A2979 RMK A01 T03440134  RH  028%=      5-min Rain = 0
KAHS 222050Z 18010KT 35/14 A2979 RMK A01 T03460138  RH  029%=      5-min Rain = 0
KAHS 222051Z 19011KT 35/14 A2979 RMK A01 T03470137  RH  028%=      5-min Rain = 0
KAHS 222052Z 19010KT 34/13 A2979 RMK A01 T03440131  RH  028%=      5-min Rain = 0
KAHS 222053Z 19009KT 34/14 A2979 RMK A01 T03430135  RH  028%=      5-min Rain = 0
KAHS 222054Z 16008KT 35/14 A2979 RMK A01 T03450136  RH  028%=      5-min Rain = 0
KAHS 222055Z 19008KT 35/13 A2979 RMK A01 T03460133  RH  028%=      5-min Rain = 0
KAHS 222056Z 20005KT 34/13 A2979 RMK A01 T03430130  RH  028%=      5-min Rain = 0
KAHS 222057Z 19003KT 34/13 A2979 RMK A01 T03410134  RH  029%=      5-min Rain = 0
KAHS 222058Z 22005KT 34/14 A2979 RMK A01 T03400136  RH  029%=      5-min Rain = 0
KAHS 222059Z 23003KT 34/13 A2979 RMK A01 T03370127  RH  028%=      5-min Rain = 0
KAHS 222100Z 18004KT 34/13 A2979 RMK A01 T03370133  RH  029%=      5-min Rain = 0
KAHS 222101Z 18006KT 34/14 A2979 RMK A01 T03390135  RH  029%=      5-min Rain = 0
KAHS 222102Z 18007KT 34/14 A2979 RMK A01 T03410135  RH  029%=      5-min Rain = 0
KAHS 222103Z 19007KT 34/13 A2979 RMK A01 T03400133  RH  029%=      5-min Rain = 0
KAHS 222104Z 19006KT 34/13 A2979 RMK A01 T03370129  RH  028%=      5-min Rain = 0
KAHS 222105Z 18007KT 34/14 A2979 RMK A01 T03390135  RH  029%=      5-min Rain = 0
KAHS 222106Z 18009KT 34/14 A2979 RMK A01 T03430137  RH  029%=      5-min Rain = 0
KAHS 222107Z 16010KT 35/14 A2979 RMK A01 T03480139  RH  029%=      5-min Rain = 0
KAHS 222108Z 16012KT 35/13 A2979 RMK A01 T03500131  RH  027%=      5-min Rain = 0
KAHS 222109Z 16010KT 35/13 A2979 RMK A01 T03480132  RH  027%=      5-min Rain = 0
KAHS 222110Z 15009KT 35/13 A2979 RMK A01 T03480133  RH  027%=      5-min Rain = 0
KAHS 222111Z 19006KT 35/14 A2978 RMK A01 T03480135  RH  028%=      5-min Rain = 0
KAHS 222112Z 19007KT 35/13 A2978 RMK A01 T03480133  RH  028%=      5-min Rain = 0
KAHS 222113Z 19008KT 35/14 A2978 RMK A01 T03470135  RH  028%=      5-min Rain = 0
KAHS 222114Z 18005KT 35/13 A2978 RMK A01 T03460133  RH  028%=      5-min Rain = 0
KAHS 222115Z 16010KT 35/14 A2978 RMK A01 T03470135  RH  028%=      5-min Rain = 0
KAHS 222116Z 15012KT 35/14 A2978 RMK A01 T03490136  RH  028%=      5-min Rain = 0
KAHS 222117Z 16012KT 35/14 A2978 RMK A01 T03490135  RH  028%=      5-min Rain = 0
KAHS 222118Z 15012KT 35/13 A2978 RMK A01 T03490133  RH  027%=      5-min Rain = 0
KAHS 222119Z 16010KT 35/13 A2978 RMK A01 T03490130  RH  027%=      5-min Rain = 0
KAHS 222120Z 14008KT 35/13 A2978 RMK A01 T03460129  RH  027%=      5-min Rain = 0
KAHS 222121Z 14006KT 35/13 A2978 RMK A01 T03450130  RH  027%=      5-min Rain = 0
KAHS 222122Z 13006KT 35/13 A2978 RMK A01 T03460131  RH  027%=      5-min Rain = 0
KAHS 222123Z 16007KT 35/14 A2978 RMK A01 T03480137  RH  028%=      5-min Rain = 0
KAHS 222124Z 14010KT 35/14 A2978 RMK A01 T03520137  RH  028%=      5-min Rain = 0
KAHS 222125Z 16009G14KT 35/13 A2978 RMK A01 T03530132  RH  027%=      5-min Rain = 0
KAHS 222126Z 17012G17KT 35/13 A2978 RMK A01 T03530133  RH  027%=      5-min Rain = 0
KAHS 222127Z 16010KT 35/13 A2978 RMK A01 T03530128  RH  026%=      5-min Rain = 0
KAHS 222128Z 16012KT 35/13 A2978 RMK A01 T03540129  RH  026%=      5-min Rain = 0
KAHS 222129Z 17013KT 35/13 A2978 RMK A01 T03540127  RH  026%=      5-min Rain = 0
KAHS 222130Z 19012KT 35/13 A2978 RMK A01 T03530127  RH  026%=      5-min Rain = 0
KAHS 222131Z 19010KT 35/13 A2978 RMK A01 T03510126  RH  026%=      5-min Rain = 0
KAHS 222132Z 19008KT 35/12 A2978 RMK A01 T03480124  RH  026%=      5-min Rain = 0
KAHS 222133Z 20006KT 35/13 A2978 RMK A01 T03470127  RH  027%=      5-min Rain = 0
KAHS 222134Z 20006KT 35/12 A2977 RMK A01 T03470123  RH  026%=      5-min Rain = 0
KAHS 222135Z 22005KT 35/12 A2977 RMK A01 T03460122  RH  026%=      5-min Rain = 0
KAHS 222136Z 19004KT 35/12 A2977 RMK A01 T03460124  RH  026%=      5-min Rain = 0
KAHS 222137Z 20007KT 35/13 A2977 RMK A01 T03470125  RH  026%=      5-min Rain = 0
KAHS 222138Z 19005KT 35/12 A2977 RMK A01 T03460123  RH  026%=      5-min Rain = 0
KAHS 222139Z 20005KT 35/13 A2977 RMK A01 T03460126  RH  026%=      5-min Rain = 0
KAHS 222140Z 21006KT 35/12 A2977 RMK A01 T03460124  RH  026%=      5-min Rain = 0
KAHS 222141Z 21009KT 35/13 A2977 RMK A01 T03480128  RH  027%=      5-min Rain = 0
KAHS 222142Z 22006KT 35/13 A2977 RMK A01 T03500128  RH  026%=      5-min Rain = 0
KAHS 222143Z 21007KT 35/12 A2977 RMK A01 T03500122  RH  025%=      5-min Rain = 0
KAHS 222144Z 20008KT 35/12 A2977 RMK A01 T03480124  RH  026%=      5-min Rain = 0
KAHS 222145Z 19009KT 35/13 A2977 RMK A01 T03500128  RH  026%=      5-min Rain = 0
KAHS 222146Z 17008KT 35/13 A2977 RMK A01 T03500125  RH  026%=      5-min Rain = 0
KAHS 222147Z 17009KT 35/13 A2977 RMK A01 T03520128  RH  026%=      5-min Rain = 0
KAHS 222148Z 17008KT 35/12 A2977 RMK A01 T03520123  RH  025%=      5-min Rain = 0
KAHS 222149Z 17008KT 35/12 A2977 RMK A01 T03510120  RH  025%=      5-min Rain = 0
KAHS 222150Z 17009KT 35/12 A2976 RMK A01 T03500121  RH  025%=      5-min Rain = 0
KAHS 222151Z 16006KT 35/12 A2976 RMK A01 T03490120  RH  025%=      5-min Rain = 0
KAHS 222152Z 17007KT 35/13 A2976 RMK A01 T03510127  RH  026%=      5-min Rain = 0
KAHS 222153Z 17008KT 35/13 A2976 RMK A01 T03540131  RH  026%=      5-min Rain = 0
KAHS 222154Z 17008KT 36/13 A2976 RMK A01 T03550128  RH  026%=      5-min Rain = 0
KAHS 222155Z 16011KT 36/13 A2976 RMK A01 T03550125  RH  025%=      5-min Rain = 0
KAHS 222156Z 17010KT 35/12 A2976 RMK A01 T03530122  RH  025%=      5-min Rain = 0
KAHS 222157Z 16009KT 35/12 A2976 RMK A01 T03500123  RH  025%=      5-min Rain = 0
KAHS 222158Z 16008KT 35/13 A2976 RMK A01 T03490125  RH  026%=      5-min Rain = 0
KAHS 222159Z 15010KT 35/12 A2976 RMK A01 T03510124  RH  025%=      5-min Rain = 0
KAHS 222200Z 18011KT 35/13 A2976 RMK A01 T03530125  RH  025%=      5-min Rain = 0
KAHS 222201Z 18010KT 35/12 A2976 RMK A01 T03530121  RH  025%=      5-min Rain = 0
KAHS 222202Z 19007KT 35/12 A2976 RMK A01 T03540124  RH  025%=      5-min Rain = 0
KAHS 222203Z 19009KT 36/12 A2976 RMK A01 T03550123  RH  025%=      5-min Rain = 0
KAHS 222204Z 18008KT 35/12 A2976 RMK A01 T03540121  RH  025%=      5-min Rain = 0
KAHS 222205Z 17010KT 36/13 A2976 RMK A01 T03550125  RH  025%=      5-min Rain = 0
KAHS 222206Z 17012KT 36/12 A2976 RMK A01 T03560122  RH  024%=      5-min Rain = 0
KAHS 222207Z 19011KT 36/13 A2976 RMK A01 T03560127  RH  025%=      5-min Rain = 0
KAHS 222208Z 21012G17KT 36/12 A2976 RMK A01 T03560123  RH  024%=      5-min Rain = 0
KAHS 222209Z 20010KT 35/12 A2976 RMK A01 T03540121  RH  025%=      5-min Rain = 0
KAHS 222210Z 19010KT 35/12 A2976 RMK A01 T03530120  RH  025%=      5-min Rain = 0
KAHS 222211Z 20009KT 35/13 A2976 RMK A01 T03520125  RH  025%=      5-min Rain = 0
KAHS 222212Z 20010KT 35/12 A2976 RMK A01 T03500124  RH  025%=      5-min Rain = 0
KAHS 222213Z 18010KT 35/12 A2976 RMK A01 T03490120  RH  025%=      5-min Rain = 0
KAHS 222214Z 20010KT 35/12 A2976 RMK A01 T03480120  RH  025%=      5-min Rain = 0
KAHS 222215Z 18009KT 35/12 A2976 RMK A01 T03480119  RH  025%=      5-min Rain = 0
KAHS 222216Z 18010KT 35/12 A2976 RMK A01 T03480121  RH  025%=      5-min Rain = 0
KAHS 222217Z 17009KT 35/12 A2976 RMK A01 T03500123  RH  026%=      5-min Rain = 0
KAHS 222218Z 17009KT 35/12 A2975 RMK A01 T03510123  RH  025%=      5-min Rain = 0
KAHS 222219Z 17007G13KT 35/13 A2975 RMK A01 T03530129  RH  026%=      5-min Rain = 0
KAHS 222220Z 18011KT 36/13 A2975 RMK A01 T03550125  RH  025%=      5-min Rain = 0
KAHS 222221Z 19011KT 35/12 A2975 RMK A01 T03520120  RH  025%=      5-min Rain = 0
KAHS 222222Z 19008KT 35/13 A2975 RMK A01 T03520127  RH  026%=      5-min Rain = 0
KAHS 222223Z 20009KT 35/12 A2975 RMK A01 T03510124  RH  025%=      5-min Rain = 0
KAHS 222224Z 19008KT 35/12 A2975 RMK A01 T03460121  RH  026%=      5-min Rain = 0
KAHS 222225Z 18007KT 34/12 A2975 RMK A01 T03420119  RH  026%=      5-min Rain = 0
KAHS 222226Z 20007KT 34/12 A2975 RMK A01 T03400122  RH  027%=      5-min Rain = 0
KAHS 222227Z 20008KT 34/12 A2975 RMK A01 T03390117  RH  026%=      5-min Rain = 0
KAHS 222228Z 20006KT 34/12 A2975 RMK A01 T03390116  RH  026%=      5-min Rain = 0
KAHS 222229Z 19003KT 34/12 A2975 RMK A01 T03420122  RH  026%=      5-min Rain = 0
KAHS 222230Z 17005KT 35/12 A2975 RMK A01 T03460121  RH  026%=      5-min Rain = 0
KAHS 222231Z 18005KT 35/12 A2975 RMK A01 T03490121  RH  025%=      5-min Rain = 0
KAHS 222232Z 17004KT 35/12 A2975 RMK A01 T03500119  RH  025%=      5-min Rain = 0
KAHS 222233Z 19006KT 35/12 A2975 RMK A01 T03510118  RH  024%=      5-min Rain = 0
KAHS 222234Z 20006KT 35/12 A2975 RMK A01 T03510116  RH  024%=      5-min Rain = 0
KAHS 222235Z 16005KT 35/12 A2975 RMK A01 T03520124  RH  025%=      5-min Rain = 0
KAHS 222236Z 17005KT 36/12 A2975 RMK A01 T03550123  RH  025%=      5-min Rain = 0
KAHS 222237Z 17005KT 35/12 A2975 RMK A01 T03540122  RH  025%=      5-min Rain = 0
KAHS 222238Z 15008KT 35/12 A2975 RMK A01 T03540119  RH  024%=      5-min Rain = 0
KAHS 222239Z 16008KT 35/12 A2975 RMK A01 T03530119  RH  024%=      5-min Rain = 0
KAHS 222240Z 16008KT 35/12 A2975 RMK A01 T03540120  RH  024%=      5-min Rain = 0
KAHS 222241Z 17008KT 35/12 A2975 RMK A01 T03540117  RH  024%=      5-min Rain = 0
KAHS 222242Z 16008KT 35/12 A2975 RMK A01 T03540118  RH  024%=      5-min Rain = 0
KAHS 222243Z 16008KT 36/12 A2975 RMK A01 T03550118  RH  024%=      5-min Rain = 0
KAHS 222244Z 16005KT 36/12 A2975 RMK A01 T03550115  RH  024%=      5-min Rain = 0
KAHS 222245Z 18005KT 36/12 A2975 RMK A01 T03550120  RH  024%=      5-min Rain = 0
KAHS 222246Z 19005KT 35/12 A2975 RMK A01 T03540118  RH  024%=      5-min Rain = 0
KAHS 222247Z 19007KT 35/12 A2974 RMK A01 T03510120  RH  025%=      5-min Rain = 0
KAHS 222248Z 16010KT 35/12 A2975 RMK A01 T03500121  RH  025%=      5-min Rain = 0
KAHS 222249Z 18007KT 35/12 A2975 RMK A01 T03500120  RH  025%=      5-min Rain = 0
KAHS 222250Z 16009KT 35/12 A2975 RMK A01 T03520121  RH  025%=      5-min Rain = 0
KAHS 222251Z 18011KT 35/12 A2975 RMK A01 T03530119  RH  024%=      5-min Rain = 0
KAHS 222252Z 18007KT 35/12 A2975 RMK A01 T03540119  RH  024%=      5-min Rain = 0
KAHS 222253Z 18006KT 35/12 A2975 RMK A01 T03540121  RH  025%=      5-min Rain = 0
KAHS 222254Z 18005KT 35/12 A2974 RMK A01 T03540119  RH  024%=      5-min Rain = 0
KAHS 222255Z 18006KT 36/12 A2974 RMK A01 T03560122  RH  024%=      5-min Rain = 0
KAHS 222256Z 19006KT 35/11 A2974 RMK A01 T03540110  RH  023%=      5-min Rain = 0
KAHS 222257Z 18006KT 35/11 A2974 RMK A01 T03520114  RH  024%=      5-min Rain = 0
KAHS 222258Z 17006KT 35/12 A2974 RMK A01 T03520115  RH  024%=      5-min Rain = 0
KAHS 222259Z 16007KT 35/12 A2974 RMK A01 T03530118  RH  024%=      5-min Rain = 0
KAHS 222300Z 16010KT 35/11 A2974 RMK A01 T03520114  RH  024%=      5-min Rain = 0
KAHS 222301Z 16009KT 35/11 A2974 RMK A01 T03500108  RH  023%=      5-min Rain = 0
KAHS 222302Z 20008KT 35/11 A2974 RMK A01 T03490111  RH  024%=      5-min Rain = 0
KAHS 222303Z 19007KT 35/11 A2974 RMK A01 T03480108  RH  023%=      5-min Rain = 0
KAHS 222304Z 20009KT 35/11 A2974 RMK A01 T03490110  RH  023%=      5-min Rain = 0
KAHS 222305Z 19007KT 35/11 A2974 RMK A01 T03490106  RH  023%=      5-min Rain = 0
KAHS 222306Z 19008KT 35/11 A2974 RMK A01 T03500108  RH  023%=      5-min Rain = 0
KAHS 222307Z 19006KT 35/11 A2974 RMK A01 T03500110  RH  023%=      5-min Rain = 0
KAHS 222308Z 20008KT 35/11 A2974 RMK A01 T03500113  RH  024%=      5-min Rain = 0
KAHS 222309Z 18007KT 35/11 A2974 RMK A01 T03500109  RH  023%=      5-min Rain = 0
KAHS 222310Z 18009KT 35/11 A2974 RMK A01 T03480114  RH  024%=      5-min Rain = 0
KAHS 222311Z 18009KT 35/11 A2974 RMK A01 T03450113  RH  024%=      5-min Rain = 0
KAHS 222312Z 19010KT 34/11 A2974 RMK A01 T03430112  RH  024%=      5-min Rain = 0
KAHS 222313Z 20009KT 34/11 A2974 RMK A01 T03420110  RH  024%=      5-min Rain = 0
KAHS 222314Z 19010KT 34/11 A2974 RMK A01 T03410112  RH  025%=      5-min Rain = 0
KAHS 222315Z 19008KT 34/11 A2974 RMK A01 T03400113  RH  025%=      5-min Rain = 0
KAHS 222316Z 17008KT 34/11 A2974 RMK A01 T03390114  RH  025%=      5-min Rain = 0
KAHS 222317Z 18008KT 34/11 A2974 RMK A01 T03390108  RH  025%=      5-min Rain = 0
KAHS 222318Z 18010KT 34/11 A2974 RMK A01 T03380107  RH  024%=      5-min Rain = 0
KAHS 222319Z 17010KT 34/11 A2974 RMK A01 T03370106  RH  024%=      5-min Rain = 0
KAHS 222320Z 18008KT 34/11 A2974 RMK A01 T03370105  RH  024%=      5-min Rain = 0
KAHS 222321Z 17007KT 34/11 A2974 RMK A01 T03370107  RH  025%=      5-min Rain = 0
KAHS 222322Z 18007KT 34/11 A2974 RMK A01 T03370108  RH  025%=      5-min Rain = 0
KAHS 222323Z 19006KT 34/11 A2974 RMK A01 T03370111  RH  025%=      5-min Rain = 0
KAHS 222324Z 18008KT 34/11 A2974 RMK A01 T03370107  RH  025%=      5-min Rain = 0
KAHS 222325Z 19007KT 34/11 A2974 RMK A01 T03370107  RH  025%=      5-min Rain = 0
KAHS 222326Z 18008KT 34/11 A2973 RMK A01 T03370107  RH  024%=      5-min Rain = 0
KAHS 222327Z 18006KT 34/11 A2973 RMK A01 T03370108  RH  025%=      5-min Rain = 0
KAHS 222328Z 18008KT 34/11 A2973 RMK A01 T03370107  RH  024%=      5-min Rain = 0
KAHS 222329Z 18009KT 34/11 A2973 RMK A01 T03380105  RH  024%=      5-min Rain = 0
KAHS 222330Z 18008KT 34/10 A2973 RMK A01 T03390102  RH  024%=      5-min Rain = 0
KAHS 222331Z 18006KT 34/10 A2973 RMK A01 T03380102  RH  024%=      5-min Rain = 0
KAHS 222332Z 18007KT 34/10 A2973 RMK A01 T03380104  RH  024%=      5-min Rain = 0
KAHS 222333Z 19008KT 34/10 A2973 RMK A01 T03370101  RH  024%=      5-min Rain = 0
KAHS 222334Z 19008KT 34/10 A2973 RMK A01 T03370101  RH  024%=      5-min Rain = 0
KAHS 222335Z 19006KT 34/10 A2973 RMK A01 T03360104  RH  024%=      5-min Rain = 0
KAHS 222336Z 18006KT 34/11 A2973 RMK A01 T03360105  RH  024%=      5-min Rain = 0
KAHS 222337Z 19006KT 34/11 A2973 RMK A01 T03350107  RH  025%=      5-min Rain = 0
KAHS 222338Z 19008KT 34/11 A2973 RMK A01 T03360108  RH  025%=      5-min Rain = 0
KAHS 222339Z 19006KT 34/11 A2973 RMK A01 T03380112  RH  025%=      5-min Rain = 0
KAHS 222340Z 18006KT 34/10 A2973 RMK A01 T03390104  RH  024%=      5-min Rain = 0
KAHS 222341Z 19007KT 34/11 A2973 RMK A01 T03380107  RH  024%=      5-min Rain = 0
KAHS 222342Z 19008KT 34/10 A2973 RMK A01 T03380104  RH  024%=      5-min Rain = 0
KAHS 222343Z 18007KT 34/10 A2973 RMK A01 T03370103  RH  024%=      5-min Rain = 0
KAHS 222344Z 18007KT 34/10 A2973 RMK A01 T03360104  RH  024%=      5-min Rain = 0
KAHS 222345Z 18007KT 34/11 A2973 RMK A01 T03360105  RH  024%=      5-min Rain = 0
KAHS 222346Z 18006KT 34/11 A2973 RMK A01 T03350105  RH  024%=      5-min Rain = 0
KAHS 222347Z 19006KT 33/11 A2973 RMK A01 T03340106  RH  025%=      5-min Rain = 0
KAHS 222348Z 19006KT 33/11 A2973 RMK A01 T03330105  RH  025%=      5-min Rain = 0
KAHS 222349Z 19005KT 33/11 A2973 RMK A01 T03330107  RH  025%=      5-min Rain = 0
KAHS 222350Z 19005KT 33/11 A2973 RMK A01 T03330106  RH  025%=      5-min Rain = 0
KAHS 222351Z 19006KT 33/11 A2973 RMK A01 T03320111  RH  026%=      5-min Rain = 0
KAHS 222352Z 18006KT 33/11 A2973 RMK A01 T03320108  RH  025%=      5-min Rain = 0
KAHS 222353Z 18005KT 33/11 A2973 RMK A01 T03320110  RH  026%=      5-min Rain = 0
KAHS 222354Z 17005KT 33/11 A2973 RMK A01 T03310113  RH  026%=      5-min Rain = 0
KAHS 222355Z 17004KT 33/11 A2973 RMK A01 T03310112  RH  026%=      5-min Rain = 0
KAHS 222356Z 16004KT 33/12 A2973 RMK A01 T03310115  RH  027%=      5-min Rain = 0
KAHS 222357Z 16004KT 33/12 A2973 RMK A01 T03310115  RH  027%=      5-min Rain = 0
KAHS 222358Z 16004KT 33/11 A2973 RMK A01 T03300114  RH  027%=      5-min Rain = 0
KAHS 222359Z 16003KT 33/12 A2973 RMK A01 T03300117  RH  027%=      5-min Rain = 0
KAHS 230000Z 16003KT 33/12 A2973 RMK A01 T03300121  RH  028%=      5-min Rain = 0
KAHS 230001Z 16004KT 33/12 A2973 RMK A01 T03300122  RH  028%=      5-min Rain = 0
KAHS 230002Z 15004KT 33/12 A2973 RMK A01 T03290122  RH  028%=      5-min Rain = 0
KAHS 230003Z 15004KT 33/12 A2973 RMK A01 T03280124  RH  029%=      5-min Rain = 0
KAHS 230004Z 15004KT 33/12 A2973 RMK A01 T03280124  RH  029%=      5-min Rain = 0
KAHS 230005Z 15003KT 33/13 A2972 RMK A01 T03270125  RH  029%=      5-min Rain = 0
KAHS 230006Z 15003KT 33/13 A2972 RMK A01 T03260126  RH  030%=      5-min Rain = 0
KAHS 230007Z 14003KT 33/13 A2972 RMK A01 T03250126  RH  030%=      5-min Rain = 0
KAHS 230008Z 14003KT 32/13 A2972 RMK A01 T03240126  RH  030%=      5-min Rain = 0
KAHS 230009Z 15003KT 32/13 A2972 RMK A01 T03240127  RH  030%=      5-min Rain = 0
KAHS 230010Z 15003KT 32/13 A2972 RMK A01 T03230130  RH  031%=      5-min Rain = 0
KAHS 230011Z 15003KT 32/13 A2972 RMK A01 T03230129  RH  031%=      5-min Rain = 0
KAHS 230012Z 15003KT 32/13 A2972 RMK A01 T03230129  RH  031%=      5-min Rain = 0
KAHS 230013Z 16004KT 32/13 A2972 RMK A01 T03230131  RH  031%=      5-min Rain = 0
KAHS 230014Z 16003KT 32/13 A2972 RMK A01 T03220129  RH  031%=      5-min Rain = 0
KAHS 230015Z 15003KT 32/13 A2972 RMK A01 T03240127  RH  030%=      5-min Rain = 0
KAHS 230016Z 16004KT 33/13 A2972 RMK A01 T03250130  RH  030%=      5-min Rain = 0
KAHS 230017Z 16004KT 33/13 A2972 RMK A01 T03270128  RH  030%=      5-min Rain = 0
KAHS 230018Z 16004KT 33/12 A2972 RMK A01 T03270124  RH  029%=      5-min Rain = 0
KAHS 230019Z 16003KT 33/13 A2972 RMK A01 T03280127  RH  029%=      5-min Rain = 0
KAHS 230020Z 16003KT 33/12 A2972 RMK A01 T03290122  RH  028%=      5-min Rain = 0
KAHS 230021Z 15003KT 33/12 A2972 RMK A01 T03290122  RH  029%=      5-min Rain = 0
KAHS 230022Z 15003KT 33/13 A2972 RMK A01 T03280126  RH  029%=      5-min Rain = 0
KAHS 230023Z 16003KT 33/12 A2972 RMK A01 T03270122  RH  029%=      5-min Rain = 0
KAHS 230024Z 17003KT 33/12 A2972 RMK A01 T03260124  RH  029%=      5-min Rain = 0
KAHS 230025Z 16003KT 33/13 A2972 RMK A01 T03260125  RH  029%=      5-min Rain = 0
KAHS 230026Z 15003KT 33/12 A2972 RMK A01 T03250124  RH  029%=      5-min Rain = 0
KAHS 230027Z 15004KT 32/13 A2972 RMK A01 T03240125  RH  030%=      5-min Rain = 0
KAHS 230028Z 15004KT 32/12 A2972 RMK A01 T03240122  RH  029%=      5-min Rain = 0
KAHS 230029Z 15003KT 32/12 A2972 RMK A01 T03240122  RH  029%=      5-min Rain = 0
KAHS 230030Z 15003KT 33/13 A2972 RMK A01 T03250129  RH  030%=      5-min Rain = 0
KAHS 230031Z 15003KT 33/13 A2972 RMK A01 T03250128  RH  030%=      5-min Rain = 0
KAHS 230032Z 16004KT 32/13 A2972 RMK A01 T03240127  RH  030%=      5-min Rain = 0
KAHS 230033Z 15004KT 32/13 A2972 RMK A01 T03230126  RH  030%=      5-min Rain = 0
KAHS 230034Z 15003KT 32/13 A2972 RMK A01 T03220127  RH  030%=      5-min Rain = 0
KAHS 230035Z 16004KT 32/13 A2972 RMK A01 T03220127  RH  030%=      5-min Rain = 0
KAHS 230036Z 17003KT 32/13 A2972 RMK A01 T03220126  RH  030%=      5-min Rain = 0
KAHS 230037Z 16003KT 32/13 A2972 RMK A01 T03210126  RH  030%=      5-min Rain = 0
KAHS 230038Z 16003KT 32/13 A2972 RMK A01 T03210131  RH  031%=      5-min Rain = 0
KAHS 230039Z 17003KT 32/13 A2972 RMK A01 T03210130  RH  031%=      5-min Rain = 0
KAHS 230040Z 17003KT 32/13 A2972 RMK A01 T03210128  RH  031%=      5-min Rain = 0
KAHS 230041Z 18003KT 32/13 A2972 RMK A01 T03220130  RH  031%=      5-min Rain = 0
KAHS 230042Z 17002KT 32/13 A2972 RMK A01 T03220133  RH  032%=      5-min Rain = 0
KAHS 230043Z 18003KT 32/13 A2972 RMK A01 T03220132  RH  031%=      5-min Rain = 0
KAHS 230044Z 18002KT 32/14 A2972 RMK A01 T03230135  RH  032%=      5-min Rain = 0
KAHS 230045Z 18003KT 32/14 A2972 RMK A01 T03230139  RH  033%=      5-min Rain = 0
KAHS 230046Z 18004KT 32/14 A2972 RMK A01 T03230137  RH  032%=      5-min Rain = 0
KAHS 230047Z 18003KT 32/13 A2972 RMK A01 T03220134  RH  032%=      5-min Rain = 0
KAHS 230048Z 18004KT 32/13 A2972 RMK A01 T03220129  RH  031%=      5-min Rain = 0
KAHS 230049Z 18003KT 32/13 A2972 RMK A01 T03220128  RH  031%=      5-min Rain = 0
KAHS 230050Z 18003KT 32/13 A2972 RMK A01 T03210131  RH  031%=      5-min Rain = 0
KAHS 230051Z 18004KT 32/13 A2972 RMK A01 T03210132  RH  032%=      5-min Rain = 0
KAHS 230052Z 18003KT 32/14 A2972 RMK A01 T03210135  RH  032%=      5-min Rain = 0
KAHS 230053Z 19004KT 32/13 A2972 RMK A01 T03200134  RH  032%=      5-min Rain = 0
KAHS 230054Z 18004KT 32/13 A2972 RMK A01 T03190134  RH  032%=      5-min Rain = 0
KAHS 230055Z 18003KT 32/13 A2972 RMK A01 T03190134  RH  032%=      5-min Rain = 0
KAHS 230056Z 18003KT 32/14 A2972 RMK A01 T03190135  RH  033%=      5-min Rain = 0
KAHS 230057Z 17003KT 32/14 A2972 RMK A01 T03190137  RH  033%=      5-min Rain = 0
KAHS 230058Z 17003KT 32/14 A2972 RMK A01 T03200137  RH  033%=      5-min Rain = 0
KAHS 230059Z 17003KT 32/13 A2972 RMK A01 T03200133  RH  032%=      5-min Rain = 0
KAHS 230100Z 17004KT 32/13 A2972 RMK A01 T03200134  RH  032%=      5-min Rain = 0
KAHS 230101Z 17003KT 32/13 A2972 RMK A01 T03200131  RH  032%=      5-min Rain = 0
KAHS 230102Z 17004KT 32/13 A2972 RMK A01 T03200129  RH  031%=      5-min Rain = 0
KAHS 230103Z 17004KT 32/13 A2972 RMK A01 T03200129  RH  031%=      5-min Rain = 0
KAHS 230104Z 17004KT 32/13 A2972 RMK A01 T03200128  RH  031%=      5-min Rain = 0
KAHS 230105Z 17004KT 32/13 A2972 RMK A01 T03200129  RH  031%=      5-min Rain = 0
KAHS 230106Z 17005KT 32/13 A2972 RMK A01 T03200129  RH  031%=      5-min Rain = 0
KAHS 230107Z 17005KT 32/13 A2972 RMK A01 T03200128  RH  031%=      5-min Rain = 0
KAHS 230108Z 17005KT 32/13 A2972 RMK A01 T03190127  RH  031%=      5-min Rain = 0
KAHS 230109Z 17005KT 32/13 A2972 RMK A01 T03180128  RH  031%=      5-min Rain = 0
KAHS 230110Z 17005KT 32/13 A2972 RMK A01 T03180127  RH  031%=      5-min Rain = 0
KAHS 230111Z 17005KT 32/13 A2972 RMK A01 T03170125  RH  031%=      5-min Rain = 0
KAHS 230112Z 16004KT 32/13 A2972 RMK A01 T03170125  RH  031%=      5-min Rain = 0
KAHS 230113Z 17004KT 32/13 A2972 RMK A01 T03170126  RH  031%=      5-min Rain = 0
KAHS 230114Z 16004KT 32/13 A2972 RMK A01 T03160128  RH  032%=      5-min Rain = 0
KAHS 230115Z 17004KT 32/13 A2972 RMK A01 T03150129  RH  032%=      5-min Rain = 0
KAHS 230116Z 18004KT 31/13 A2972 RMK A01 T03140128  RH  032%=      5-min Rain = 0
KAHS 230117Z 17004KT 31/13 A2972 RMK A01 T03130129  RH  033%=      5-min Rain = 0
KAHS 230118Z 17004KT 31/13 A2972 RMK A01 T03130130  RH  033%=      5-min Rain = 0
KAHS 230119Z 17004KT 31/13 A2972 RMK A01 T03130129  RH  033%=      5-min Rain = 0
KAHS 230120Z 17004KT 31/13 A2972 RMK A01 T03120128  RH  032%=      5-min Rain = 0
KAHS 230121Z 17005KT 31/13 A2972 RMK A01 T03120128  RH  033%=      5-min Rain = 0
KAHS 230122Z 17004KT 31/13 A2972 RMK A01 T03110128  RH  033%=      5-min Rain = 0
KAHS 230123Z 17005KT 31/13 A2972 RMK A01 T03110128  RH  033%=      5-min Rain = 0
KAHS 230124Z 17005KT 31/13 A2972 RMK A01 T03100127  RH  033%=      5-min Rain = 0
KAHS 230125Z 17005KT 31/13 A2972 RMK A01 T03090128  RH  033%=      5-min Rain = 0
KAHS 230126Z 17005KT 31/13 A2972 RMK A01 T03080127  RH  033%=      5-min Rain = 0
KAHS 230127Z 17005KT 31/13 A2972 RMK A01 T03070127  RH  033%=      5-min Rain = 0
KAHS 230128Z 17005KT 31/13 A2972 RMK A01 T03060127  RH  033%=      5-min Rain = 0
KAHS 230129Z 17005KT 31/13 A2972 RMK A01 T03060128  RH  034%=      5-min Rain = 0
KAHS 230130Z 17005KT 30/13 A2972 RMK A01 T03040126  RH  034%=      5-min Rain = 0
KAHS 230131Z 17005KT 30/13 A2972 RMK A01 T03030127  RH  034%=      5-min Rain = 0
KAHS 230132Z 17005KT 30/13 A2972 RMK A01 T03030127  RH  034%=      5-min Rain = 0
KAHS 230133Z 17005KT 30/13 A2972 RMK A01 T03020127  RH  034%=      5-min Rain = 0
KAHS 230134Z 17005KT 30/13 A2972 RMK A01 T03010127  RH  034%=      5-min Rain = 0
KAHS 230135Z 16005KT 30/13 A2972 RMK A01 T03000127  RH  035%=      5-min Rain = 0
KAHS 230136Z 17005KT 30/13 A2972 RMK A01 T02990127  RH  035%=      5-min Rain = 0
KAHS 230137Z 17005KT 30/13 A2972 RMK A01 T02980127  RH  035%=      5-min Rain = 0
KAHS 230138Z 17005KT 30/13 A2972 RMK A01 T02970127  RH  035%=      5-min Rain = 0
KAHS 230139Z 17005KT 30/13 A2972 RMK A01 T02960127  RH  035%=      5-min Rain = 0
KAHS 230140Z 17005KT 30/13 A2972 RMK A01 T02960126  RH  035%=      5-min Rain = 0
KAHS 230141Z 17005KT 30/13 A2972 RMK A01 T02950126  RH  035%=      5-min Rain = 0
KAHS 230142Z 17005KT 29/13 A2972 RMK A01 T02940125  RH  035%=      5-min Rain = 0
KAHS 230143Z 17005KT 29/13 A2972 RMK A01 T02940125  RH  035%=      5-min Rain = 0
KAHS 230144Z 17005KT 29/12 A2972 RMK A01 T02930124  RH  035%=      5-min Rain = 0
KAHS 230145Z 17005KT 29/12 A2972 RMK A01 T02930124  RH  035%=      5-min Rain = 0
KAHS 230146Z 18005KT 29/13 A2972 RMK A01 T02920125  RH  036%=      5-min Rain = 0
KAHS 230147Z 18005KT 29/13 A2972 RMK A01 T02920125  RH  036%=      5-min Rain = 0
KAHS 230148Z 18005KT 29/12 A2972 RMK A01 T02910124  RH  036%=      5-min Rain = 0
KAHS 230149Z 18005KT 29/12 A2972 RMK A01 T02910124  RH  036%=      5-min Rain = 0
KAHS 230150Z 18005KT 29/12 A2972 RMK A01 T02900123  RH  036%=      5-min Rain = 0
KAHS 230151Z 18005KT 29/12 A2972 RMK A01 T02900124  RH  036%=      5-min Rain = 0
KAHS 230152Z 18005KT 29/12 A2972 RMK A01 T02900124  RH  036%=      5-min Rain = 0
KAHS 230153Z 18005KT 29/12 A2972 RMK A01 T02890124  RH  036%=      5-min Rain = 0
KAHS 230154Z 18005KT 29/12 A2972 RMK A01 T02890124  RH  036%=      5-min Rain = 0
KAHS 230155Z 18005KT 29/12 A2972 RMK A01 T02890124  RH  036%=      5-min Rain = 0
KAHS 230156Z 18005KT 29/12 A2972 RMK A01 T02890124  RH  036%=      5-min Rain = 0
KAHS 230157Z 18004KT 29/12 A2972 RMK A01 T02880124  RH  036%=      5-min Rain = 0
KAHS 230158Z 18004KT 29/12 A2972 RMK A01 T02880124  RH  036%=      5-min Rain = 0
KAHS 230159Z 18004KT 29/12 A2972 RMK A01 T02870123  RH  036%=      5-min Rain = 0
KAHS 230200Z 18004KT 29/12 A2972 RMK A01 T02870123  RH  036%=      5-min Rain = 0
KAHS 230201Z 18004KT 29/12 A2972 RMK A01 T02870122  RH  036%=      5-min Rain = 0
KAHS 230202Z 18004KT 29/12 A2972 RMK A01 T02870122  RH  036%=      5-min Rain = 0
KAHS 230203Z 18004KT 29/12 A2972 RMK A01 T02880122  RH  036%=      5-min Rain = 0
KAHS 230204Z 18004KT 29/12 A2972 RMK A01 T02870123  RH  036%=      5-min Rain = 0
KAHS 230205Z 17005KT 29/12 A2972 RMK A01 T02860123  RH  036%=      5-min Rain = 0
KAHS 230206Z 17005KT 29/12 A2972 RMK A01 T02860123  RH  037%=      5-min Rain = 0
KAHS 230207Z 17005KT 29/13 A2972 RMK A01 T02850125  RH  037%=      5-min Rain = 0
KAHS 230208Z 18006KT 28/13 A2973 RMK A01 T02830128  RH  038%=      5-min Rain = 0
KAHS 230209Z 18006KT 28/13 A2973 RMK A01 T02800130  RH  039%=      5-min Rain = 0
KAHS 230210Z 19005KT 28/13 A2973 RMK A01 T02770131  RH  040%=      5-min Rain = 0
KAHS 230211Z 19005KT 28/13 A2973 RMK A01 T02750131  RH  041%=      5-min Rain = 0
KAHS 230212Z 19004KT 27/13 A2973 RMK A01 T02730131  RH  041%=      5-min Rain = 0
KAHS 230213Z 20004KT 27/13 A2973 RMK A01 T02720133  RH  042%=      5-min Rain = 0
KAHS 230214Z 21003KT 27/14 A2973 RMK A01 T02700137  RH  044%=      5-min Rain = 0
KAHS 230215Z 22003KT 27/14 A2973 RMK A01 T02670138  RH  045%=      5-min Rain = 0
KAHS 230216Z 23003KT 27/14 A2973 RMK A01 T02660137  RH  045%=      5-min Rain = 0
KAHS 230217Z 22003KT 27/14 A2973 RMK A01 T02650135  RH  045%=      5-min Rain = 0
KAHS 230218Z 22003KT 27/13 A2973 RMK A01 T02650134  RH  044%=      5-min Rain = 0
KAHS 230219Z 21003KT 27/13 A2973 RMK A01 T02650133  RH  044%=      5-min Rain = 0
KAHS 230220Z 22003KT 27/13 A2973 RMK A01 T02670133  RH  044%=      5-min Rain = 0
KAHS 230221Z 22003KT 27/13 A2973 RMK A01 T02670132  RH  043%=      5-min Rain = 0
KAHS 230222Z 21003KT 27/13 A2973 RMK A01 T02680131  RH  043%=      5-min Rain = 0
KAHS 230223Z 20003KT 27/13 A2973 RMK A01 T02680131  RH  043%=      5-min Rain = 0
KAHS 230224Z 19003KT 27/13 A2973 RMK A01 T02700130  RH  042%=      5-min Rain = 0
KAHS 230225Z 19002KT 27/13 A2973 RMK A01 T02730130  RH  041%=      5-min Rain = 0
KAHS 230226Z 21002KT 27/13 A2973 RMK A01 T02740131  RH  041%=      5-min Rain = 0
KAHS 230227Z 21004KT 28/13 A2973 RMK A01 T02750131  RH  041%=      5-min Rain = 0
KAHS 230228Z 22003KT 27/13 A2973 RMK A01 T02740131  RH  041%=      5-min Rain = 0
KAHS 230229Z 21003KT 27/13 A2973 RMK A01 T02730131  RH  041%=      5-min Rain = 0
KAHS 230230Z 20003KT 27/13 A2973 RMK A01 T02730132  RH  042%=      5-min Rain = 0
KAHS 230231Z 20002KT 27/13 A2973 RMK A01 T02720131  RH  042%=      5-min Rain = 0
KAHS 230232Z 19004KT 27/13 A2973 RMK A01 T02720131  RH  042%=      5-min Rain = 0
KAHS 230233Z 18004KT 27/13 A2973 RMK A01 T02720131  RH  042%=      5-min Rain = 0
KAHS 230234Z 18004KT 27/13 A2973 RMK A01 T02720133  RH  042%=      5-min Rain = 0
KAHS 230235Z 18004KT 27/13 A2973 RMK A01 T02720134  RH  042%=      5-min Rain = 0
KAHS 230236Z 18005KT 27/14 A2973 RMK A01 T02720135  RH  043%=      5-min Rain = 0
KAHS 230237Z 18005KT 27/14 A2973 RMK A01 T02700135  RH  043%=      5-min Rain = 0
KAHS 230238Z 20004KT 27/14 A2973 RMK A01 T02690136  RH  044%=      5-min Rain = 0
KAHS 230239Z 25004KT 27/14 A2973 RMK A01 T02670137  RH  045%=      5-min Rain = 0
KAHS 230240Z 25005KT 26/14 A2974 RMK A01 T02640138  RH  046%=      5-min Rain = 0
KAHS 230241Z 25005KT 26/14 A2974 RMK A01 T02620137  RH  046%=      5-min Rain = 0
KAHS 230242Z 23005KT 26/14 A2974 RMK A01 T02600138  RH  047%=      5-min Rain = 0
KAHS 230243Z 22004KT 26/14 A2974 RMK A01 T02590137  RH  047%=      5-min Rain = 0
KAHS 230244Z 22004KT 26/14 A2974 RMK A01 T02580137  RH  047%=      5-min Rain = 0
KAHS 230245Z 21004KT 26/14 A2974 RMK A01 T02580138  RH  047%=      5-min Rain = 0
KAHS 230246Z 20004KT 26/14 A2974 RMK A01 T02590138  RH  047%=      5-min Rain = 0
KAHS 230247Z 21004KT 26/14 A2974 RMK A01 T02600138  RH  047%=      5-min Rain = 0
KAHS 230248Z 20003KT 26/14 A2974 RMK A01 T02610137  RH  046%=      5-min Rain = 0
KAHS 230249Z 19002KT 26/14 A2974 RMK A01 T02620137  RH  046%=      5-min Rain = 0
KAHS 230250Z 18003KT 26/14 A2974 RMK A01 T02630138  RH  046%=      5-min Rain = 0
KAHS 230251Z 19003KT 26/14 A2974 RMK A01 T02630138  RH  046%=      5-min Rain = 0
KAHS 230252Z 19003KT 26/14 A2974 RMK A01 T02630139  RH  046%=      5-min Rain = 0
KAHS 230253Z 19003KT 26/14 A2974 RMK A01 T02630139  RH  046%=      5-min Rain = 0
KAHS 230254Z 19003KT 26/14 A2974 RMK A01 T02630138  RH  046%=      5-min Rain = 0
KAHS 230255Z 19003KT 26/14 A2974 RMK A01 T02630139  RH  046%=      5-min Rain = 0
KAHS 230256Z 19003KT 26/14 A2974 RMK A01 T02630139  RH  046%=      5-min Rain = 0
KAHS 230257Z 19002KT 26/14 A2974 RMK A01 T02630138  RH  046%=      5-min Rain = 0
KAHS 230258Z 19002KT 26/14 A2974 RMK A01 T02630139  RH  046%=      5-min Rain = 0
KAHS 230259Z 19002KT 26/14 A2974 RMK A01 T02630139  RH  047%=      5-min Rain = 0
KAHS 230300Z 20002KT 26/14 A2974 RMK A01 T02620139  RH  047%=      5-min Rain = 0
KAHS 230301Z 22001KT 26/14 A2974 RMK A01 T02610139  RH  047%=      5-min Rain = 0
KAHS 230302Z 23002KT 26/14 A2974 RMK A01 T02610138  RH  047%=      5-min Rain = 0
KAHS 230303Z 23002KT 26/14 A2974 RMK A01 T02600139  RH  047%=      5-min Rain = 0
KAHS 230304Z 21002KT 26/14 A2974 RMK A01 T02590138  RH  047%=      5-min Rain = 0
KAHS 230305Z 19003KT 26/14 A2974 RMK A01 T02600138  RH  047%=      5-min Rain = 0
KAHS 230306Z 19004KT 26/14 A2974 RMK A01 T02600139  RH  047%=      5-min Rain = 0
KAHS 230307Z 18004KT 26/14 A2974 RMK A01 T02620138  RH  047%=      5-min Rain = 0
KAHS 230308Z 18005KT 26/14 A2974 RMK A01 T02620139  RH  046%=      5-min Rain = 0
KAHS 230309Z 18006KT 26/14 A2974 RMK A01 T02630138  RH  046%=      5-min Rain = 0
KAHS 230310Z 18005KT 26/14 A2974 RMK A01 T02630139  RH  046%=      5-min Rain = 0
KAHS 230311Z 18006KT 26/14 A2974 RMK A01 T02620139  RH  047%=      5-min Rain = 0
KAHS 230312Z 18006KT 26/14 A2974 RMK A01 T02620140  RH  047%=      5-min Rain = 0
KAHS 230313Z 19007KT 26/14 A2974 RMK A01 T02620141  RH  047%=      5-min Rain = 0
KAHS 230314Z 19006KT 26/14 A2974 RMK A01 T02610141  RH  048%=      5-min Rain = 0
KAHS 230315Z 18007KT 26/14 A2974 RMK A01 T02600142  RH  048%=      5-min Rain = 0
KAHS 230316Z 18006KT 26/14 A2974 RMK A01 T02600142  RH  048%=      5-min Rain = 0
KAHS 230317Z 19006KT 26/14 A2974 RMK A01 T02590143  RH  049%=      5-min Rain = 0
KAHS 230318Z 19006KT 26/14 A2975 RMK A01 T02580143  RH  049%=      5-min Rain = 0
KAHS 230319Z 19006KT 26/15 A2975 RMK A01 T02580145  RH  049%=      5-min Rain = 0
KAHS 230320Z 18005KT 26/15 A2975 RMK A01 T02580145  RH  050%=      5-min Rain = 0
KAHS 230321Z 19006KT 26/15 A2975 RMK A01 T02580146  RH  050%=      5-min Rain = 0
KAHS 230322Z 18006KT 26/15 A2975 RMK A01 T02570146  RH  050%=      5-min Rain = 0
KAHS 230323Z 18007KT 26/15 A2975 RMK A01 T02580147  RH  050%=      5-min Rain = 0
KAHS 230324Z 19007KT 26/15 A2975 RMK A01 T02590149  RH  050%=      5-min Rain = 0
KAHS 230325Z 18008KT 26/15 A2975 RMK A01 T02610149  RH  050%=      5-min Rain = 0
KAHS 230326Z 18006KT 26/15 A2975 RMK A01 T02610151  RH  051%=      5-min Rain = 0
KAHS 230327Z 18006KT 26/15 A2975 RMK A01 T02620152  RH  051%=      5-min Rain = 0
KAHS 230328Z 18007KT 26/15 A2975 RMK A01 T02610152  RH  051%=      5-min Rain = 0
KAHS 230329Z 18007KT 26/15 A2975 RMK A01 T02620153  RH  051%=      5-min Rain = 0
KAHS 230330Z 18007KT 26/15 A2975 RMK A01 T02640153  RH  051%=      5-min Rain = 0
KAHS 230331Z 18008KT 27/15 A2975 RMK A01 T02660154  RH  050%=      5-min Rain = 0
KAHS 230332Z 18008KT 27/15 A2975 RMK A01 T02680154  RH  049%=      5-min Rain = 0
KAHS 230333Z 19008KT 27/15 A2975 RMK A01 T02700154  RH  049%=      5-min Rain = 0
KAHS 230334Z 18008KT 27/16 A2975 RMK A01 T02730155  RH  048%=      5-min Rain = 0
KAHS 230335Z 19009KT 28/16 A2975 RMK A01 T02750155  RH  048%=      5-min Rain = 0
KAHS 230336Z 18010KT 28/16 A2975 RMK A01 T02780155  RH  047%=      5-min Rain = 0
KAHS 230337Z 18011KT 28/16 A2975 RMK A01 T02800155  RH  047%=      5-min Rain = 0
KAHS 230338Z 18010KT 28/16 A2975 RMK A01 T02810155  RH  046%=      5-min Rain = 0
KAHS 230339Z 18010KT 28/16 A2975 RMK A01 T02810155  RH  046%=      5-min Rain = 0
KAHS 230340Z 18010KT 28/16 A2975 RMK A01 T02810155  RH  046%=      5-min Rain = 0
KAHS 230341Z 18009KT 28/16 A2975 RMK A01 T02810155  RH  046%=      5-min Rain = 0
KAHS 230342Z 18010KT 28/16 A2975 RMK A01 T02810155  RH  046%=      5-min Rain = 0
KAHS 230343Z 18009KT 28/16 A2975 RMK A01 T02810156  RH  047%=      5-min Rain = 0
KAHS 230344Z 19008KT 28/16 A2975 RMK A01 T02800156  RH  047%=      5-min Rain = 0
KAHS 230345Z 19008KT 28/16 A2975 RMK A01 T02790156  RH  047%=      5-min Rain = 0
KAHS 230346Z 19008KT 28/16 A2975 RMK A01 T02790156  RH  047%=      5-min Rain = 0
KAHS 230347Z 19008KT 28/16 A2975 RMK A01 T02800157  RH  047%=      5-min Rain = 0
KAHS 230348Z 19008KT 28/16 A2975 RMK A01 T02800158  RH  047%=      5-min Rain = 0
KAHS 230349Z 19008KT 28/16 A2975 RMK A01 T02790158  RH  048%=      5-min Rain = 0
KAHS 230350Z 19008KT 28/16 A2975 RMK A01 T02790159  RH  048%=      5-min Rain = 0
KAHS 230351Z 18007KT 28/16 A2975 RMK A01 T02780159  RH  048%=      5-min Rain = 0
KAHS 230352Z 19008KT 28/16 A2975 RMK A01 T02770159  RH  048%=      5-min Rain = 0
KAHS 230353Z 19007KT 28/16 A2975 RMK A01 T02770159  RH  049%=      5-min Rain = 0
KAHS 230354Z 18007KT 28/16 A2975 RMK A01 T02760159  RH  049%=      5-min Rain = 0
KAHS 230355Z 18008KT 28/16 A2975 RMK A01 T02750159  RH  049%=      5-min Rain = 0
KAHS 230356Z 18006KT 28/16 A2976 RMK A01 T02760159  RH  049%=      5-min Rain = 0
KAHS 230357Z 18007KT 28/16 A2976 RMK A01 T02750160  RH  049%=      5-min Rain = 0
KAHS 230358Z 18007KT 28/16 A2975 RMK A01 T02750159  RH  049%=      5-min Rain = 0
KAHS 230359Z 19006KT 28/16 A2975 RMK A01 T02750160  RH  049%=      5-min Rain = 0
KAHS 230400Z 19007KT 28/16 A2975 RMK A01 T02750160  RH  049%=      5-min Rain = 0
KAHS 230401Z 18007KT 28/16 A2975 RMK A01 T02750161  RH  050%=      5-min Rain = 0
KAHS 230402Z 19007KT 28/16 A2975 RMK A01 T02750161  RH  050%=      5-min Rain = 0
KAHS 230403Z 19006KT 28/16 A2975 RMK A01 T02750162  RH  050%=      5-min Rain = 0
KAHS 230404Z 20006KT 27/16 A2975 RMK A01 T02740162  RH  051%=      5-min Rain = 0
KAHS 230405Z 20005KT 27/16 A2975 RMK A01 T02730162  RH  051%=      5-min Rain = 0
KAHS 230406Z 21005KT 27/16 A2975 RMK A01 T02720162  RH  051%=      5-min Rain = 0
KAHS 230407Z 21005KT 27/16 A2975 RMK A01 T02710162  RH  051%=      5-min Rain = 0
KAHS 230408Z 21006KT 27/16 A2975 RMK A01 T02700162  RH  051%=      5-min Rain = 0
KAHS 230409Z 21005KT 27/16 A2975 RMK A01 T02700161  RH  051%=      5-min Rain = 0
KAHS 230410Z 21005KT 27/16 A2975 RMK A01 T02690161  RH  052%=      5-min Rain = 0
KAHS 230411Z 21005KT 27/16 A2975 RMK A01 T02690161  RH  052%=      5-min Rain = 0
KAHS 230412Z 21005KT 27/16 A2975 RMK A01 T02680161  RH  052%=      5-min Rain = 0
KAHS 230413Z 22005KT 27/16 A2975 RMK A01 T02680161  RH  052%=      5-min Rain = 0
KAHS 230414Z 24004KT 27/16 A2975 RMK A01 T02670161  RH  052%=      5-min Rain = 0
KAHS 230415Z 23004KT 27/16 A2975 RMK A01 T02650159  RH  052%=      5-min Rain = 0
KAHS 230416Z 23004KT 26/16 A2975 RMK A01 T02630159  RH  053%=      5-min Rain = 0
KAHS 230417Z 23004KT 26/16 A2975 RMK A01 T02620159  RH  053%=      5-min Rain = 0
KAHS 230418Z 23004KT 26/16 A2975 RMK A01 T02600159  RH  054%=      5-min Rain = 0
KAHS 230419Z 23004KT 26/16 A2975 RMK A01 T02590159  RH  054%=      5-min Rain = 0
KAHS 230420Z 22005KT 26/16 A2975 RMK A01 T02600159  RH  054%=      5-min Rain = 0
KAHS 230421Z 22005KT 26/16 A2975 RMK A01 T02590160  RH  054%=      5-min Rain = 0
KAHS 230422Z 22004KT 26/16 A2975 RMK A01 T02590160  RH  054%=      5-min Rain = 0
KAHS 230423Z 22004KT 26/16 A2975 RMK A01 T02590160  RH  054%=      5-min Rain = 0
KAHS 230424Z 21004KT 26/16 A2975 RMK A01 T02590161  RH  055%=      5-min Rain = 0
KAHS 230425Z 21004KT 26/16 A2975 RMK A01 T02590161  RH  055%=      5-min Rain = 0
KAHS 230426Z 19004KT 26/16 A2975 RMK A01 T02580161  RH  055%=      5-min Rain = 0
KAHS 230427Z 19003KT 26/16 A2975 RMK A01 T02580161  RH  055%=      5-min Rain = 0
KAHS 230428Z 19003KT 26/16 A2975 RMK A01 T02580161  RH  055%=      5-min Rain = 0
KAHS 230429Z 19003KT 26/16 A2975 RMK A01 T02580161  RH  055%=      5-min Rain = 0
KAHS 230430Z 19004KT 26/16 A2975 RMK A01 T02580162  RH  055%=      5-min Rain = 0
KAHS 230431Z 19004KT 26/16 A2975 RMK A01 T02580162  RH  055%=      5-min Rain = 0
KAHS 230432Z 19004KT 26/16 A2974 RMK A01 T02580162  RH  055%=      5-min Rain = 0
KAHS 230433Z 19004KT 26/16 A2974 RMK A01 T02590162  RH  055%=      5-min Rain = 0
KAHS 230434Z 20004KT 26/16 A2974 RMK A01 T02590162  RH  055%=      5-min Rain = 0
KAHS 230435Z 19004KT 26/16 A2974 RMK A01 T02580162  RH  055%=      5-min Rain = 0
KAHS 230436Z 19004KT 26/16 A2974 RMK A01 T02580162  RH  055%=      5-min Rain = 0
KAHS 230437Z 19003KT 26/16 A2974 RMK A01 T02570162  RH  055%=      5-min Rain = 0
KAHS 230438Z 20003KT 26/16 A2974 RMK A01 T02580162  RH  056%=      5-min Rain = 0
KAHS 230439Z 21002KT 26/16 A2974 RMK A01 T02570162  RH  056%=      5-min Rain = 0
KAHS 230440Z 22002KT 26/16 A2974 RMK A01 T02570162  RH  056%=      5-min Rain = 0
KAHS 230441Z 22002KT 26/16 A2974 RMK A01 T02560162  RH  056%=      5-min Rain = 0
KAHS 230442Z 23002KT 26/16 A2974 RMK A01 T02550162  RH  057%=      5-min Rain = 0
KAHS 230443Z 23002KT 25/16 A2974 RMK A01 T02530162  RH  057%=      5-min Rain = 0
KAHS 230444Z 24002KT 25/16 A2974 RMK A01 T02510161  RH  057%=      5-min Rain = 0
KAHS 230445Z 24002KT 25/16 A2974 RMK A01 T02500161  RH  058%=      5-min Rain = 0
KAHS 230446Z 23002KT 25/16 A2974 RMK A01 T02500160  RH  058%=      5-min Rain = 0
KAHS 230447Z 22003KT 25/16 A2974 RMK A01 T02500160  RH  057%=      5-min Rain = 0
KAHS 230448Z 22003KT 25/16 A2974 RMK A01 T02500160  RH  057%=      5-min Rain = 0
KAHS 230449Z 22003KT 25/16 A2974 RMK A01 T02510160  RH  057%=      5-min Rain = 0
KAHS 230450Z 22003KT 25/16 A2974 RMK A01 T02520160  RH  056%=      5-min Rain = 0
KAHS 230451Z 21003KT 25/16 A2974 RMK A01 T02530160  RH  056%=      5-min Rain = 0
KAHS 230452Z 20004KT 25/16 A2974 RMK A01 T02540161  RH  056%=      5-min Rain = 0
KAHS 230453Z 20004KT 26/16 A2974 RMK A01 T02550161  RH  056%=      5-min Rain = 0
KAHS 230454Z 20005KT 26/16 A2974 RMK A01 T02560161  RH  056%=      5-min Rain = 0
KAHS 230455Z 19005KT 26/16 A2974 RMK A01 T02570162  RH  056%=      5-min Rain = 0
KAHS 230456Z 20005KT 26/16 A2974 RMK A01 T02560163  RH  056%=      5-min Rain = 0
KAHS 230457Z 19005KT 26/16 A2974 RMK A01 T02560164  RH  056%=      5-min Rain = 0
KAHS 230458Z 19005KT 26/16 A2974 RMK A01 T02560163  RH  057%=      5-min Rain = 0
KAHS 230459Z 18005KT 26/16 A2974 RMK A01 T02550163  RH  057%=      5-min Rain = 0

Page generated in 0.0798 seconds.